<?xml version="1.0" encoding="UTF-8" standalone="no" ?>
<gpx xmlns="http://www.topografix.com/GPX/1/1" xmlns:xsi="http://www.w3.org/2001/XMLSchema-instance" xsi:schemaLocation="http://www.topografix.com/GPX/1/1 http://www.topografix.com/GPX/1/1/gpx.xsd" version="1.1" creator="VisuGPX - https://www.visugpx.com">
  <metadata>
    <name>2020-07-13 11:55:26</name>
  </metadata>
  <trk>
    <name><![CDATA[2020-07-13 11:55:26]]></name>
    <trkseg>
      <trkpt lat="44.82615" lon="4.68015">
        <ele>153.95</ele>
        <time>2020-07-13T07:08:43Z</time>
      </trkpt>
      <trkpt lat="44.82615" lon="4.68016">
        <ele>154.43</ele>
        <time>2020-07-13T07:08:46Z</time>
      </trkpt>
      <trkpt lat="44.82616" lon="4.68018">
        <ele>153.95</ele>
        <time>2020-07-13T07:08:57Z</time>
      </trkpt>
      <trkpt lat="44.82616" lon="4.68021">
        <ele>152.99</ele>
        <time>2020-07-13T07:09:26Z</time>
      </trkpt>
      <trkpt lat="44.82616" lon="4.6802">
        <ele>152.03</ele>
        <time>2020-07-13T07:09:55Z</time>
      </trkpt>
      <trkpt lat="44.82615" lon="4.68019">
        <ele>153.95</ele>
        <time>2020-07-13T07:10:26Z</time>
      </trkpt>
      <trkpt lat="44.82618" lon="4.6802">
        <ele>152.03</ele>
        <time>2020-07-13T07:10:57Z</time>
      </trkpt>
      <trkpt lat="44.82614" lon="4.68016">
        <ele>152.51</ele>
        <time>2020-07-13T07:11:32Z</time>
      </trkpt>
      <trkpt lat="44.82615" lon="4.68019">
        <ele>155.87</ele>
        <time>2020-07-13T07:12:09Z</time>
      </trkpt>
      <trkpt lat="44.82615" lon="4.6802">
        <ele>156.35</ele>
        <time>2020-07-13T07:12:41Z</time>
      </trkpt>
      <trkpt lat="44.82615" lon="4.68019">
        <ele>154.91</ele>
        <time>2020-07-13T07:13:11Z</time>
      </trkpt>
      <trkpt lat="44.82614" lon="4.68016">
        <ele>154.91</ele>
        <time>2020-07-13T07:13:48Z</time>
      </trkpt>
      <trkpt lat="44.82615" lon="4.6802">
        <ele>159.24</ele>
        <time>2020-07-13T07:14:29Z</time>
      </trkpt>
      <trkpt lat="44.82615" lon="4.68021">
        <ele>159.72</ele>
        <time>2020-07-13T07:14:58Z</time>
      </trkpt>
      <trkpt lat="44.82614" lon="4.68021">
        <ele>158.75</ele>
        <time>2020-07-13T07:15:13Z</time>
      </trkpt>
      <trkpt lat="44.82618" lon="4.68029">
        <ele>161.64</ele>
        <time>2020-07-13T07:15:26Z</time>
      </trkpt>
      <trkpt lat="44.82622" lon="4.68034">
        <ele>164.04</ele>
        <time>2020-07-13T07:15:33Z</time>
      </trkpt>
      <trkpt lat="44.82637" lon="4.68045">
        <ele>168.85</ele>
        <time>2020-07-13T07:15:46Z</time>
      </trkpt>
      <trkpt lat="44.82638" lon="4.68043">
        <ele>169.33</ele>
        <time>2020-07-13T07:15:50Z</time>
      </trkpt>
      <trkpt lat="44.8264" lon="4.68019">
        <ele>163.56</ele>
        <time>2020-07-13T07:16:05Z</time>
      </trkpt>
      <trkpt lat="44.82643" lon="4.67987">
        <ele>158.27</ele>
        <time>2020-07-13T07:16:20Z</time>
      </trkpt>
      <trkpt lat="44.82641" lon="4.67954">
        <ele>156.83</ele>
        <time>2020-07-13T07:16:38Z</time>
      </trkpt>
      <trkpt lat="44.82637" lon="4.67934">
        <ele>156.35</ele>
        <time>2020-07-13T07:16:53Z</time>
      </trkpt>
      <trkpt lat="44.82631" lon="4.67914">
        <ele>156.83</ele>
        <time>2020-07-13T07:17:08Z</time>
      </trkpt>
      <trkpt lat="44.82627" lon="4.67889">
        <ele>159.24</ele>
        <time>2020-07-13T07:17:25Z</time>
      </trkpt>
      <trkpt lat="44.82626" lon="4.67858">
        <ele>160.68</ele>
        <time>2020-07-13T07:17:42Z</time>
      </trkpt>
      <trkpt lat="44.82625" lon="4.67831">
        <ele>162.12</ele>
        <time>2020-07-13T07:17:57Z</time>
      </trkpt>
      <trkpt lat="44.82631" lon="4.67793">
        <ele>156.83</ele>
        <time>2020-07-13T07:18:17Z</time>
      </trkpt>
      <trkpt lat="44.82631" lon="4.67761">
        <ele>155.39</ele>
        <time>2020-07-13T07:18:33Z</time>
      </trkpt>
      <trkpt lat="44.82627" lon="4.67729">
        <ele>154.91</ele>
        <time>2020-07-13T07:18:49Z</time>
      </trkpt>
      <trkpt lat="44.8262" lon="4.6769">
        <ele>156.35</ele>
        <time>2020-07-13T07:19:08Z</time>
      </trkpt>
      <trkpt lat="44.82618" lon="4.67659">
        <ele>157.79</ele>
        <time>2020-07-13T07:19:24Z</time>
      </trkpt>
      <trkpt lat="44.82615" lon="4.67626">
        <ele>156.83</ele>
        <time>2020-07-13T07:19:40Z</time>
      </trkpt>
      <trkpt lat="44.8261" lon="4.6759">
        <ele>156.83</ele>
        <time>2020-07-13T07:19:55Z</time>
      </trkpt>
      <trkpt lat="44.82605" lon="4.6756">
        <ele>160.2</ele>
        <time>2020-07-13T07:20:11Z</time>
      </trkpt>
      <trkpt lat="44.82603" lon="4.67533">
        <ele>169.33</ele>
        <time>2020-07-13T07:20:29Z</time>
      </trkpt>
      <trkpt lat="44.826" lon="4.67511">
        <ele>176.06</ele>
        <time>2020-07-13T07:20:43Z</time>
      </trkpt>
      <trkpt lat="44.826" lon="4.67509">
        <ele>176.54</ele>
        <time>2020-07-13T07:20:44Z</time>
      </trkpt>
      <trkpt lat="44.82597" lon="4.67491">
        <ele>177.98</ele>
        <time>2020-07-13T07:20:52Z</time>
      </trkpt>
      <trkpt lat="44.82596" lon="4.67481">
        <ele>177.5</ele>
        <time>2020-07-13T07:20:56Z</time>
      </trkpt>
      <trkpt lat="44.82594" lon="4.67464">
        <ele>179.9</ele>
        <time>2020-07-13T07:21:05Z</time>
      </trkpt>
      <trkpt lat="44.82592" lon="4.6746">
        <ele>179.42</ele>
        <time>2020-07-13T07:21:08Z</time>
      </trkpt>
      <trkpt lat="44.82582" lon="4.67426">
        <ele>178.94</ele>
        <time>2020-07-13T07:21:25Z</time>
      </trkpt>
      <trkpt lat="44.82573" lon="4.67403">
        <ele>177.98</ele>
        <time>2020-07-13T07:21:39Z</time>
      </trkpt>
      <trkpt lat="44.82553" lon="4.67373">
        <ele>178.94</ele>
        <time>2020-07-13T07:21:59Z</time>
      </trkpt>
      <trkpt lat="44.82533" lon="4.67338">
        <ele>171.73</ele>
        <time>2020-07-13T07:22:15Z</time>
      </trkpt>
      <trkpt lat="44.82517" lon="4.67315">
        <ele>169.81</ele>
        <time>2020-07-13T07:22:29Z</time>
      </trkpt>
      <trkpt lat="44.82504" lon="4.67288">
        <ele>173.17</ele>
        <time>2020-07-13T07:22:47Z</time>
      </trkpt>
      <trkpt lat="44.82502" lon="4.67283">
        <ele>174.62</ele>
        <time>2020-07-13T07:22:51Z</time>
      </trkpt>
      <trkpt lat="44.82486" lon="4.6725">
        <ele>174.14</ele>
        <time>2020-07-13T07:23:08Z</time>
      </trkpt>
      <trkpt lat="44.82477" lon="4.67228">
        <ele>175.58</ele>
        <time>2020-07-13T07:23:22Z</time>
      </trkpt>
      <trkpt lat="44.82473" lon="4.67218">
        <ele>175.58</ele>
        <time>2020-07-13T07:23:27Z</time>
      </trkpt>
      <trkpt lat="44.82455" lon="4.67185">
        <ele>177.02</ele>
        <time>2020-07-13T07:23:48Z</time>
      </trkpt>
      <trkpt lat="44.82438" lon="4.67148">
        <ele>173.66</ele>
        <time>2020-07-13T07:24:04Z</time>
      </trkpt>
      <trkpt lat="44.82419" lon="4.6711">
        <ele>168.37</ele>
        <time>2020-07-13T07:24:22Z</time>
      </trkpt>
      <trkpt lat="44.8241" lon="4.67084">
        <ele>170.77</ele>
        <time>2020-07-13T07:24:36Z</time>
      </trkpt>
      <trkpt lat="44.82402" lon="4.67062">
        <ele>177.98</ele>
        <time>2020-07-13T07:24:52Z</time>
      </trkpt>
      <trkpt lat="44.8239" lon="4.67037">
        <ele>179.9</ele>
        <time>2020-07-13T07:25:06Z</time>
      </trkpt>
      <trkpt lat="44.82363" lon="4.67002">
        <ele>172.21</ele>
        <time>2020-07-13T07:25:22Z</time>
      </trkpt>
      <trkpt lat="44.82347" lon="4.66971">
        <ele>169.33</ele>
        <time>2020-07-13T07:25:38Z</time>
      </trkpt>
      <trkpt lat="44.82332" lon="4.66947">
        <ele>169.33</ele>
        <time>2020-07-13T07:25:53Z</time>
      </trkpt>
      <trkpt lat="44.82318" lon="4.66924">
        <ele>169.81</ele>
        <time>2020-07-13T07:26:08Z</time>
      </trkpt>
      <trkpt lat="44.82313" lon="4.66917">
        <ele>170.29</ele>
        <time>2020-07-13T07:26:13Z</time>
      </trkpt>
      <trkpt lat="44.8231" lon="4.66911">
        <ele>170.77</ele>
        <time>2020-07-13T07:26:17Z</time>
      </trkpt>
      <trkpt lat="44.82296" lon="4.66891">
        <ele>173.66</ele>
        <time>2020-07-13T07:26:30Z</time>
      </trkpt>
      <trkpt lat="44.8229" lon="4.66879">
        <ele>175.1</ele>
        <time>2020-07-13T07:26:37Z</time>
      </trkpt>
      <trkpt lat="44.82275" lon="4.66855">
        <ele>177.98</ele>
        <time>2020-07-13T07:26:52Z</time>
      </trkpt>
      <trkpt lat="44.82252" lon="4.66826">
        <ele>177.5</ele>
        <time>2020-07-13T07:27:10Z</time>
      </trkpt>
      <trkpt lat="44.8224" lon="4.66805">
        <ele>177.98</ele>
        <time>2020-07-13T07:27:23Z</time>
      </trkpt>
      <trkpt lat="44.82225" lon="4.66786">
        <ele>179.42</ele>
        <time>2020-07-13T07:27:38Z</time>
      </trkpt>
      <trkpt lat="44.82213" lon="4.66766">
        <ele>183.75</ele>
        <time>2020-07-13T07:27:52Z</time>
      </trkpt>
      <trkpt lat="44.82203" lon="4.66738">
        <ele>190</ele>
        <time>2020-07-13T07:28:10Z</time>
      </trkpt>
      <trkpt lat="44.8218" lon="4.66706">
        <ele>190</ele>
        <time>2020-07-13T07:28:26Z</time>
      </trkpt>
      <trkpt lat="44.82179" lon="4.66704">
        <ele>190</ele>
        <time>2020-07-13T07:28:27Z</time>
      </trkpt>
      <trkpt lat="44.82157" lon="4.66666">
        <ele>180.38</ele>
        <time>2020-07-13T07:28:46Z</time>
      </trkpt>
      <trkpt lat="44.82137" lon="4.66638">
        <ele>174.62</ele>
        <time>2020-07-13T07:29:03Z</time>
      </trkpt>
      <trkpt lat="44.82115" lon="4.66618">
        <ele>172.21</ele>
        <time>2020-07-13T07:29:19Z</time>
      </trkpt>
      <trkpt lat="44.82093" lon="4.66599">
        <ele>172.21</ele>
        <time>2020-07-13T07:29:36Z</time>
      </trkpt>
      <trkpt lat="44.82086" lon="4.66593">
        <ele>173.17</ele>
        <time>2020-07-13T07:29:42Z</time>
      </trkpt>
      <trkpt lat="44.82078" lon="4.66583">
        <ele>174.62</ele>
        <time>2020-07-13T07:29:49Z</time>
      </trkpt>
      <trkpt lat="44.82063" lon="4.66559">
        <ele>180.38</ele>
        <time>2020-07-13T07:30:07Z</time>
      </trkpt>
      <trkpt lat="44.82054" lon="4.66548">
        <ele>181.35</ele>
        <time>2020-07-13T07:30:20Z</time>
      </trkpt>
      <trkpt lat="44.8205" lon="4.66543">
        <ele>181.83</ele>
        <time>2020-07-13T07:30:23Z</time>
      </trkpt>
      <trkpt lat="44.82038" lon="4.66522">
        <ele>182.79</ele>
        <time>2020-07-13T07:30:36Z</time>
      </trkpt>
      <trkpt lat="44.82034" lon="4.66513">
        <ele>183.27</ele>
        <time>2020-07-13T07:30:41Z</time>
      </trkpt>
      <trkpt lat="44.82024" lon="4.66495">
        <ele>183.75</ele>
        <time>2020-07-13T07:30:50Z</time>
      </trkpt>
      <trkpt lat="44.82007" lon="4.66461">
        <ele>181.35</ele>
        <time>2020-07-13T07:31:06Z</time>
      </trkpt>
      <trkpt lat="44.81995" lon="4.6643">
        <ele>180.87</ele>
        <time>2020-07-13T07:31:22Z</time>
      </trkpt>
      <trkpt lat="44.81984" lon="4.66391">
        <ele>178.94</ele>
        <time>2020-07-13T07:31:35Z</time>
      </trkpt>
      <trkpt lat="44.8198" lon="4.66376">
        <ele>178.46</ele>
        <time>2020-07-13T07:31:40Z</time>
      </trkpt>
      <trkpt lat="44.81976" lon="4.66349">
        <ele>177.02</ele>
        <time>2020-07-13T07:31:55Z</time>
      </trkpt>
      <trkpt lat="44.81969" lon="4.66313">
        <ele>176.06</ele>
        <time>2020-07-13T07:32:14Z</time>
      </trkpt>
      <trkpt lat="44.81955" lon="4.66279">
        <ele>173.66</ele>
        <time>2020-07-13T07:32:36Z</time>
      </trkpt>
      <trkpt lat="44.81948" lon="4.66271">
        <ele>172.21</ele>
        <time>2020-07-13T07:32:56Z</time>
      </trkpt>
      <trkpt lat="44.81935" lon="4.66255">
        <ele>171.25</ele>
        <time>2020-07-13T07:33:20Z</time>
      </trkpt>
      <trkpt lat="44.81928" lon="4.66233">
        <ele>168.85</ele>
        <time>2020-07-13T07:33:41Z</time>
      </trkpt>
      <trkpt lat="44.81917" lon="4.662">
        <ele>164.04</ele>
        <time>2020-07-13T07:34:07Z</time>
      </trkpt>
      <trkpt lat="44.81907" lon="4.66165">
        <ele>162.12</ele>
        <time>2020-07-13T07:34:31Z</time>
      </trkpt>
      <trkpt lat="44.81889" lon="4.66143">
        <ele>160.2</ele>
        <time>2020-07-13T07:34:54Z</time>
      </trkpt>
      <trkpt lat="44.81877" lon="4.66115">
        <ele>161.16</ele>
        <time>2020-07-13T07:35:17Z</time>
      </trkpt>
      <trkpt lat="44.81864" lon="4.66079">
        <ele>161.16</ele>
        <time>2020-07-13T07:35:40Z</time>
      </trkpt>
      <trkpt lat="44.81845" lon="4.66033">
        <ele>159.72</ele>
        <time>2020-07-13T07:36:08Z</time>
      </trkpt>
      <trkpt lat="44.8184" lon="4.65985">
        <ele>158.27</ele>
        <time>2020-07-13T07:36:33Z</time>
      </trkpt>
      <trkpt lat="44.81839" lon="4.65943">
        <ele>161.64</ele>
        <time>2020-07-13T07:36:54Z</time>
      </trkpt>
      <trkpt lat="44.81844" lon="4.65897">
        <ele>162.6</ele>
        <time>2020-07-13T07:37:17Z</time>
      </trkpt>
      <trkpt lat="44.81844" lon="4.65875">
        <ele>164.04</ele>
        <time>2020-07-13T07:37:29Z</time>
      </trkpt>
      <trkpt lat="44.81844" lon="4.65825">
        <ele>165.96</ele>
        <time>2020-07-13T07:37:54Z</time>
      </trkpt>
      <trkpt lat="44.81838" lon="4.65781">
        <ele>167.41</ele>
        <time>2020-07-13T07:38:15Z</time>
      </trkpt>
      <trkpt lat="44.81836" lon="4.65769">
        <ele>167.41</ele>
        <time>2020-07-13T07:38:21Z</time>
      </trkpt>
      <trkpt lat="44.81835" lon="4.6572">
        <ele>167.89</ele>
        <time>2020-07-13T07:38:46Z</time>
      </trkpt>
      <trkpt lat="44.81832" lon="4.65671">
        <ele>170.29</ele>
        <time>2020-07-13T07:39:10Z</time>
      </trkpt>
      <trkpt lat="44.81825" lon="4.65622">
        <ele>172.21</ele>
        <time>2020-07-13T07:39:33Z</time>
      </trkpt>
      <trkpt lat="44.81817" lon="4.65584">
        <ele>170.77</ele>
        <time>2020-07-13T07:39:54Z</time>
      </trkpt>
      <trkpt lat="44.81807" lon="4.6554">
        <ele>172.69</ele>
        <time>2020-07-13T07:40:16Z</time>
      </trkpt>
      <trkpt lat="44.81798" lon="4.65504">
        <ele>177.02</ele>
        <time>2020-07-13T07:40:36Z</time>
      </trkpt>
      <trkpt lat="44.81792" lon="4.65453">
        <ele>179.9</ele>
        <time>2020-07-13T07:41:01Z</time>
      </trkpt>
      <trkpt lat="44.8179" lon="4.65402">
        <ele>180.38</ele>
        <time>2020-07-13T07:41:25Z</time>
      </trkpt>
      <trkpt lat="44.81785" lon="4.65359">
        <ele>175.58</ele>
        <time>2020-07-13T07:41:47Z</time>
      </trkpt>
      <trkpt lat="44.81784" lon="4.65314">
        <ele>173.17</ele>
        <time>2020-07-13T07:42:09Z</time>
      </trkpt>
      <trkpt lat="44.81773" lon="4.65263">
        <ele>173.17</ele>
        <time>2020-07-13T07:42:33Z</time>
      </trkpt>
      <trkpt lat="44.81765" lon="4.65208">
        <ele>172.69</ele>
        <time>2020-07-13T07:42:59Z</time>
      </trkpt>
      <trkpt lat="44.81757" lon="4.65161">
        <ele>169.81</ele>
        <time>2020-07-13T07:43:23Z</time>
      </trkpt>
      <trkpt lat="44.81754" lon="4.65099">
        <ele>167.41</ele>
        <time>2020-07-13T07:43:49Z</time>
      </trkpt>
      <trkpt lat="44.81757" lon="4.65043">
        <ele>167.41</ele>
        <time>2020-07-13T07:44:15Z</time>
      </trkpt>
      <trkpt lat="44.81754" lon="4.64997">
        <ele>165.96</ele>
        <time>2020-07-13T07:44:37Z</time>
      </trkpt>
      <trkpt lat="44.81751" lon="4.64951">
        <ele>167.41</ele>
        <time>2020-07-13T07:44:59Z</time>
      </trkpt>
      <trkpt lat="44.81745" lon="4.64901">
        <ele>167.89</ele>
        <time>2020-07-13T07:45:22Z</time>
      </trkpt>
      <trkpt lat="44.81739" lon="4.64848">
        <ele>167.41</ele>
        <time>2020-07-13T07:45:48Z</time>
      </trkpt>
      <trkpt lat="44.81735" lon="4.64804">
        <ele>166.93</ele>
        <time>2020-07-13T07:46:08Z</time>
      </trkpt>
      <trkpt lat="44.81726" lon="4.64761">
        <ele>168.37</ele>
        <time>2020-07-13T07:46:29Z</time>
      </trkpt>
      <trkpt lat="44.81719" lon="4.6472">
        <ele>168.37</ele>
        <time>2020-07-13T07:46:49Z</time>
      </trkpt>
      <trkpt lat="44.81711" lon="4.64664">
        <ele>165.96</ele>
        <time>2020-07-13T07:47:17Z</time>
      </trkpt>
      <trkpt lat="44.8172" lon="4.64613">
        <ele>162.12</ele>
        <time>2020-07-13T07:47:41Z</time>
      </trkpt>
      <trkpt lat="44.81728" lon="4.64564">
        <ele>162.6</ele>
        <time>2020-07-13T07:48:05Z</time>
      </trkpt>
      <trkpt lat="44.81729" lon="4.64549">
        <ele>162.6</ele>
        <time>2020-07-13T07:48:12Z</time>
      </trkpt>
      <trkpt lat="44.81728" lon="4.64495">
        <ele>165</ele>
        <time>2020-07-13T07:48:35Z</time>
      </trkpt>
      <trkpt lat="44.81725" lon="4.64435">
        <ele>169.33</ele>
        <time>2020-07-13T07:49:02Z</time>
      </trkpt>
      <trkpt lat="44.8171" lon="4.64398">
        <ele>171.25</ele>
        <time>2020-07-13T07:49:24Z</time>
      </trkpt>
      <trkpt lat="44.81695" lon="4.64361">
        <ele>176.54</ele>
        <time>2020-07-13T07:49:44Z</time>
      </trkpt>
      <trkpt lat="44.81676" lon="4.6433">
        <ele>180.38</ele>
        <time>2020-07-13T07:50:04Z</time>
      </trkpt>
      <trkpt lat="44.81654" lon="4.64305">
        <ele>182.79</ele>
        <time>2020-07-13T07:50:24Z</time>
      </trkpt>
      <trkpt lat="44.81632" lon="4.64276">
        <ele>182.31</ele>
        <time>2020-07-13T07:50:43Z</time>
      </trkpt>
      <trkpt lat="44.81607" lon="4.64242">
        <ele>181.83</ele>
        <time>2020-07-13T07:51:05Z</time>
      </trkpt>
      <trkpt lat="44.81578" lon="4.64211">
        <ele>176.06</ele>
        <time>2020-07-13T07:51:28Z</time>
      </trkpt>
      <trkpt lat="44.81548" lon="4.64192">
        <ele>175.1</ele>
        <time>2020-07-13T07:51:49Z</time>
      </trkpt>
      <trkpt lat="44.81517" lon="4.64187">
        <ele>173.66</ele>
        <time>2020-07-13T07:52:13Z</time>
      </trkpt>
      <trkpt lat="44.81485" lon="4.64187">
        <ele>173.17</ele>
        <time>2020-07-13T07:52:35Z</time>
      </trkpt>
      <trkpt lat="44.81453" lon="4.64186">
        <ele>174.14</ele>
        <time>2020-07-13T07:52:56Z</time>
      </trkpt>
      <trkpt lat="44.81428" lon="4.64185">
        <ele>174.62</ele>
        <time>2020-07-13T07:53:16Z</time>
      </trkpt>
      <trkpt lat="44.81431" lon="4.64185">
        <ele>175.1</ele>
        <time>2020-07-13T07:53:21Z</time>
      </trkpt>
      <trkpt lat="44.81456" lon="4.64183">
        <ele>175.58</ele>
        <time>2020-07-13T07:53:42Z</time>
      </trkpt>
      <trkpt lat="44.8148" lon="4.64191">
        <ele>174.14</ele>
        <time>2020-07-13T07:54:01Z</time>
      </trkpt>
      <trkpt lat="44.81505" lon="4.64207">
        <ele>172.69</ele>
        <time>2020-07-13T07:54:20Z</time>
      </trkpt>
      <trkpt lat="44.81529" lon="4.64231">
        <ele>172.21</ele>
        <time>2020-07-13T07:54:39Z</time>
      </trkpt>
      <trkpt lat="44.81546" lon="4.64257">
        <ele>168.85</ele>
        <time>2020-07-13T07:55:01Z</time>
      </trkpt>
      <trkpt lat="44.81564" lon="4.64289">
        <ele>170.29</ele>
        <time>2020-07-13T07:55:23Z</time>
      </trkpt>
      <trkpt lat="44.81583" lon="4.64316">
        <ele>172.21</ele>
        <time>2020-07-13T07:55:43Z</time>
      </trkpt>
      <trkpt lat="44.81596" lon="4.64329">
        <ele>174.14</ele>
        <time>2020-07-13T07:55:58Z</time>
      </trkpt>
      <trkpt lat="44.81616" lon="4.64347">
        <ele>175.1</ele>
        <time>2020-07-13T07:56:16Z</time>
      </trkpt>
      <trkpt lat="44.81628" lon="4.64377">
        <ele>179.9</ele>
        <time>2020-07-13T07:56:37Z</time>
      </trkpt>
      <trkpt lat="44.81637" lon="4.64418">
        <ele>183.27</ele>
        <time>2020-07-13T07:57:00Z</time>
      </trkpt>
      <trkpt lat="44.81644" lon="4.64424">
        <ele>184.71</ele>
        <time>2020-07-13T07:57:08Z</time>
      </trkpt>
      <trkpt lat="44.81668" lon="4.64452">
        <ele>186.63</ele>
        <time>2020-07-13T07:57:30Z</time>
      </trkpt>
      <trkpt lat="44.81678" lon="4.64493">
        <ele>192.4</ele>
        <time>2020-07-13T07:57:53Z</time>
      </trkpt>
      <trkpt lat="44.81682" lon="4.64522">
        <ele>209.7</ele>
        <time>2020-07-13T07:58:06Z</time>
      </trkpt>
      <trkpt lat="44.81674" lon="4.6456">
        <ele>217.88</ele>
        <time>2020-07-13T07:58:28Z</time>
      </trkpt>
      <trkpt lat="44.81662" lon="4.64613">
        <ele>220.28</ele>
        <time>2020-07-13T07:58:53Z</time>
      </trkpt>
      <trkpt lat="44.81642" lon="4.64632">
        <ele>223.64</ele>
        <time>2020-07-13T07:59:12Z</time>
      </trkpt>
      <trkpt lat="44.81644" lon="4.64652">
        <ele>227.49</ele>
        <time>2020-07-13T07:59:31Z</time>
      </trkpt>
      <trkpt lat="44.81651" lon="4.64704">
        <ele>232.3</ele>
        <time>2020-07-13T07:59:54Z</time>
      </trkpt>
      <trkpt lat="44.81631" lon="4.64749">
        <ele>235.18</ele>
        <time>2020-07-13T08:00:17Z</time>
      </trkpt>
      <trkpt lat="44.81599" lon="4.64779">
        <ele>238.06</ele>
        <time>2020-07-13T08:00:39Z</time>
      </trkpt>
      <trkpt lat="44.81594" lon="4.6475">
        <ele>239.02</ele>
        <time>2020-07-13T08:00:56Z</time>
      </trkpt>
      <trkpt lat="44.81602" lon="4.64713">
        <ele>240.47</ele>
        <time>2020-07-13T08:01:18Z</time>
      </trkpt>
      <trkpt lat="44.81596" lon="4.64678">
        <ele>244.79</ele>
        <time>2020-07-13T08:01:39Z</time>
      </trkpt>
      <trkpt lat="44.81594" lon="4.64672">
        <ele>245.27</ele>
        <time>2020-07-13T08:01:44Z</time>
      </trkpt>
      <trkpt lat="44.81574" lon="4.64656">
        <ele>247.2</ele>
        <time>2020-07-13T08:02:05Z</time>
      </trkpt>
      <trkpt lat="44.81563" lon="4.64627">
        <ele>251.52</ele>
        <time>2020-07-13T08:02:25Z</time>
      </trkpt>
      <trkpt lat="44.81558" lon="4.64589">
        <ele>252.96</ele>
        <time>2020-07-13T08:02:46Z</time>
      </trkpt>
      <trkpt lat="44.81557" lon="4.64555">
        <ele>253.93</ele>
        <time>2020-07-13T08:03:07Z</time>
      </trkpt>
      <trkpt lat="44.81551" lon="4.64557">
        <ele>249.6</ele>
        <time>2020-07-13T08:03:26Z</time>
      </trkpt>
      <trkpt lat="44.81549" lon="4.64547">
        <ele>250.08</ele>
        <time>2020-07-13T08:03:39Z</time>
      </trkpt>
      <trkpt lat="44.81547" lon="4.64539">
        <ele>253.93</ele>
        <time>2020-07-13T08:03:56Z</time>
      </trkpt>
      <trkpt lat="44.81536" lon="4.64519">
        <ele>252.48</ele>
        <time>2020-07-13T08:04:13Z</time>
      </trkpt>
      <trkpt lat="44.81534" lon="4.64493">
        <ele>249.6</ele>
        <time>2020-07-13T08:04:29Z</time>
      </trkpt>
      <trkpt lat="44.81526" lon="4.64455">
        <ele>251.52</ele>
        <time>2020-07-13T08:04:49Z</time>
      </trkpt>
      <trkpt lat="44.81519" lon="4.64416">
        <ele>249.6</ele>
        <time>2020-07-13T08:05:11Z</time>
      </trkpt>
      <trkpt lat="44.81504" lon="4.64395">
        <ele>250.56</ele>
        <time>2020-07-13T08:05:28Z</time>
      </trkpt>
      <trkpt lat="44.81485" lon="4.6438">
        <ele>252</ele>
        <time>2020-07-13T08:05:45Z</time>
      </trkpt>
      <trkpt lat="44.81459" lon="4.64362">
        <ele>256.81</ele>
        <time>2020-07-13T08:06:05Z</time>
      </trkpt>
      <trkpt lat="44.81442" lon="4.64347">
        <ele>258.73</ele>
        <time>2020-07-13T08:06:21Z</time>
      </trkpt>
      <trkpt lat="44.81419" lon="4.64335">
        <ele>264.02</ele>
        <time>2020-07-13T08:06:38Z</time>
      </trkpt>
      <trkpt lat="44.81398" lon="4.64324">
        <ele>252.48</ele>
        <time>2020-07-13T08:06:54Z</time>
      </trkpt>
      <trkpt lat="44.81383" lon="4.64337">
        <ele>249.12</ele>
        <time>2020-07-13T08:07:12Z</time>
      </trkpt>
      <trkpt lat="44.81376" lon="4.6434">
        <ele>249.6</ele>
        <time>2020-07-13T08:07:26Z</time>
      </trkpt>
      <trkpt lat="44.81366" lon="4.64353">
        <ele>250.56</ele>
        <time>2020-07-13T08:07:40Z</time>
      </trkpt>
      <trkpt lat="44.81357" lon="4.6436">
        <ele>249.6</ele>
        <time>2020-07-13T08:07:53Z</time>
      </trkpt>
      <trkpt lat="44.81346" lon="4.64365">
        <ele>250.56</ele>
        <time>2020-07-13T08:08:10Z</time>
      </trkpt>
      <trkpt lat="44.81325" lon="4.64376">
        <ele>253.44</ele>
        <time>2020-07-13T08:08:27Z</time>
      </trkpt>
      <trkpt lat="44.81311" lon="4.64387">
        <ele>255.37</ele>
        <time>2020-07-13T08:08:40Z</time>
      </trkpt>
      <trkpt lat="44.81306" lon="4.64388">
        <ele>255.37</ele>
        <time>2020-07-13T08:08:44Z</time>
      </trkpt>
      <trkpt lat="44.81284" lon="4.64404">
        <ele>258.25</ele>
        <time>2020-07-13T08:09:04Z</time>
      </trkpt>
      <trkpt lat="44.81263" lon="4.64422">
        <ele>262.58</ele>
        <time>2020-07-13T08:09:25Z</time>
      </trkpt>
      <trkpt lat="44.81243" lon="4.64423">
        <ele>262.1</ele>
        <time>2020-07-13T08:09:43Z</time>
      </trkpt>
      <trkpt lat="44.81219" lon="4.64416">
        <ele>262.58</ele>
        <time>2020-07-13T08:10:03Z</time>
      </trkpt>
      <trkpt lat="44.81197" lon="4.64412">
        <ele>262.58</ele>
        <time>2020-07-13T08:10:18Z</time>
      </trkpt>
      <trkpt lat="44.81174" lon="4.64413">
        <ele>263.06</ele>
        <time>2020-07-13T08:10:35Z</time>
      </trkpt>
      <trkpt lat="44.81167" lon="4.64414">
        <ele>263.06</ele>
        <time>2020-07-13T08:10:39Z</time>
      </trkpt>
      <trkpt lat="44.81142" lon="4.64425">
        <ele>264.02</ele>
        <time>2020-07-13T08:10:56Z</time>
      </trkpt>
      <trkpt lat="44.81134" lon="4.64429">
        <ele>264.02</ele>
        <time>2020-07-13T08:11:02Z</time>
      </trkpt>
      <trkpt lat="44.81113" lon="4.64441">
        <ele>264.02</ele>
        <time>2020-07-13T08:11:17Z</time>
      </trkpt>
      <trkpt lat="44.81095" lon="4.64463">
        <ele>264.5</ele>
        <time>2020-07-13T08:11:35Z</time>
      </trkpt>
      <trkpt lat="44.81081" lon="4.64471">
        <ele>264.5</ele>
        <time>2020-07-13T08:11:49Z</time>
      </trkpt>
      <trkpt lat="44.81078" lon="4.64471">
        <ele>264.5</ele>
        <time>2020-07-13T08:11:52Z</time>
      </trkpt>
      <trkpt lat="44.81065" lon="4.64464">
        <ele>265.94</ele>
        <time>2020-07-13T08:12:11Z</time>
      </trkpt>
      <trkpt lat="44.81052" lon="4.64461">
        <ele>266.9</ele>
        <time>2020-07-13T08:12:29Z</time>
      </trkpt>
      <trkpt lat="44.81042" lon="4.6446">
        <ele>266.9</ele>
        <time>2020-07-13T08:12:45Z</time>
      </trkpt>
      <trkpt lat="44.81018" lon="4.64453">
        <ele>267.86</ele>
        <time>2020-07-13T08:13:05Z</time>
      </trkpt>
      <trkpt lat="44.80996" lon="4.64445">
        <ele>268.35</ele>
        <time>2020-07-13T08:13:22Z</time>
      </trkpt>
      <trkpt lat="44.80965" lon="4.64437">
        <ele>269.31</ele>
        <time>2020-07-13T08:13:43Z</time>
      </trkpt>
      <trkpt lat="44.80944" lon="4.64433">
        <ele>270.27</ele>
        <time>2020-07-13T08:14:00Z</time>
      </trkpt>
      <trkpt lat="44.80922" lon="4.64429">
        <ele>271.71</ele>
        <time>2020-07-13T08:14:16Z</time>
      </trkpt>
      <trkpt lat="44.80904" lon="4.64428">
        <ele>273.63</ele>
        <time>2020-07-13T08:14:32Z</time>
      </trkpt>
      <trkpt lat="44.80902" lon="4.64426">
        <ele>274.11</ele>
        <time>2020-07-13T08:14:35Z</time>
      </trkpt>
      <trkpt lat="44.80896" lon="4.64406">
        <ele>275.07</ele>
        <time>2020-07-13T08:14:52Z</time>
      </trkpt>
      <trkpt lat="44.80885" lon="4.64392">
        <ele>277.48</ele>
        <time>2020-07-13T08:15:09Z</time>
      </trkpt>
      <trkpt lat="44.80876" lon="4.64374">
        <ele>279.88</ele>
        <time>2020-07-13T08:15:24Z</time>
      </trkpt>
      <trkpt lat="44.80871" lon="4.6435">
        <ele>281.32</ele>
        <time>2020-07-13T08:15:40Z</time>
      </trkpt>
      <trkpt lat="44.80862" lon="4.64327">
        <ele>282.77</ele>
        <time>2020-07-13T08:15:55Z</time>
      </trkpt>
      <trkpt lat="44.80852" lon="4.64309">
        <ele>289.49</ele>
        <time>2020-07-13T08:16:08Z</time>
      </trkpt>
      <trkpt lat="44.80855" lon="4.64302">
        <ele>294.78</ele>
        <time>2020-07-13T08:16:15Z</time>
      </trkpt>
      <trkpt lat="44.80859" lon="4.64295">
        <ele>297.18</ele>
        <time>2020-07-13T08:16:22Z</time>
      </trkpt>
      <trkpt lat="44.80867" lon="4.64273">
        <ele>298.63</ele>
        <time>2020-07-13T08:16:38Z</time>
      </trkpt>
      <trkpt lat="44.80872" lon="4.64246">
        <ele>300.07</ele>
        <time>2020-07-13T08:16:55Z</time>
      </trkpt>
      <trkpt lat="44.80867" lon="4.64227">
        <ele>301.03</ele>
        <time>2020-07-13T08:17:09Z</time>
      </trkpt>
      <trkpt lat="44.8086" lon="4.64231">
        <ele>301.03</ele>
        <time>2020-07-13T08:17:16Z</time>
      </trkpt>
      <trkpt lat="44.80843" lon="4.64242">
        <ele>304.88</ele>
        <time>2020-07-13T08:17:35Z</time>
      </trkpt>
      <trkpt lat="44.80827" lon="4.64259">
        <ele>308.24</ele>
        <time>2020-07-13T08:17:54Z</time>
      </trkpt>
      <trkpt lat="44.80814" lon="4.64277">
        <ele>308.72</ele>
        <time>2020-07-13T08:18:12Z</time>
      </trkpt>
      <trkpt lat="44.80798" lon="4.6429">
        <ele>307.76</ele>
        <time>2020-07-13T08:18:30Z</time>
      </trkpt>
      <trkpt lat="44.80796" lon="4.64316">
        <ele>314.01</ele>
        <time>2020-07-13T08:18:45Z</time>
      </trkpt>
      <trkpt lat="44.80791" lon="4.6434">
        <ele>318.81</ele>
        <time>2020-07-13T08:19:03Z</time>
      </trkpt>
      <trkpt lat="44.80789" lon="4.64374">
        <ele>325.54</ele>
        <time>2020-07-13T08:19:22Z</time>
      </trkpt>
      <trkpt lat="44.80791" lon="4.64389">
        <ele>328.91</ele>
        <time>2020-07-13T08:19:39Z</time>
      </trkpt>
      <trkpt lat="44.80788" lon="4.64396">
        <ele>332.75</ele>
        <time>2020-07-13T08:19:59Z</time>
      </trkpt>
      <trkpt lat="44.8079" lon="4.64403">
        <ele>330.35</ele>
        <time>2020-07-13T08:20:27Z</time>
      </trkpt>
      <trkpt lat="44.80792" lon="4.64411">
        <ele>329.87</ele>
        <time>2020-07-13T08:20:45Z</time>
      </trkpt>
      <trkpt lat="44.80792" lon="4.64419">
        <ele>328.91</ele>
        <time>2020-07-13T08:21:04Z</time>
      </trkpt>
      <trkpt lat="44.80793" lon="4.64421">
        <ele>328.91</ele>
        <time>2020-07-13T08:21:06Z</time>
      </trkpt>
      <trkpt lat="44.80798" lon="4.64428">
        <ele>329.39</ele>
        <time>2020-07-13T08:21:12Z</time>
      </trkpt>
      <trkpt lat="44.80804" lon="4.64451">
        <ele>330.35</ele>
        <time>2020-07-13T08:21:30Z</time>
      </trkpt>
      <trkpt lat="44.80816" lon="4.64477">
        <ele>330.35</ele>
        <time>2020-07-13T08:21:46Z</time>
      </trkpt>
      <trkpt lat="44.80821" lon="4.6449">
        <ele>332.75</ele>
        <time>2020-07-13T08:22:00Z</time>
      </trkpt>
      <trkpt lat="44.80822" lon="4.64493">
        <ele>333.23</ele>
        <time>2020-07-13T08:22:14Z</time>
      </trkpt>
      <trkpt lat="44.8082" lon="4.64489">
        <ele>334.68</ele>
        <time>2020-07-13T08:22:34Z</time>
      </trkpt>
      <trkpt lat="44.80818" lon="4.64482">
        <ele>334.2</ele>
        <time>2020-07-13T08:22:38Z</time>
      </trkpt>
      <trkpt lat="44.80818" lon="4.64479">
        <ele>334.2</ele>
        <time>2020-07-13T08:22:39Z</time>
      </trkpt>
      <trkpt lat="44.80816" lon="4.64477">
        <ele>334.68</ele>
        <time>2020-07-13T08:22:40Z</time>
      </trkpt>
      <trkpt lat="44.80814" lon="4.64475">
        <ele>334.68</ele>
        <time>2020-07-13T08:22:41Z</time>
      </trkpt>
      <trkpt lat="44.80801" lon="4.64456">
        <ele>336.12</ele>
        <time>2020-07-13T08:22:52Z</time>
      </trkpt>
      <trkpt lat="44.80798" lon="4.6445">
        <ele>336.12</ele>
        <time>2020-07-13T08:22:55Z</time>
      </trkpt>
      <trkpt lat="44.80797" lon="4.6445">
        <ele>336.6</ele>
        <time>2020-07-13T08:22:56Z</time>
      </trkpt>
      <trkpt lat="44.80796" lon="4.64449">
        <ele>337.08</ele>
        <time>2020-07-13T08:22:57Z</time>
      </trkpt>
      <trkpt lat="44.80795" lon="4.64448">
        <ele>337.56</ele>
        <time>2020-07-13T08:22:58Z</time>
      </trkpt>
      <trkpt lat="44.80794" lon="4.64447">
        <ele>338.04</ele>
        <time>2020-07-13T08:22:59Z</time>
      </trkpt>
      <trkpt lat="44.80793" lon="4.64446">
        <ele>338.04</ele>
        <time>2020-07-13T08:23:00Z</time>
      </trkpt>
      <trkpt lat="44.80792" lon="4.64445">
        <ele>338.04</ele>
        <time>2020-07-13T08:23:01Z</time>
      </trkpt>
      <trkpt lat="44.80782" lon="4.6442">
        <ele>342.85</ele>
        <time>2020-07-13T08:23:17Z</time>
      </trkpt>
      <trkpt lat="44.80775" lon="4.64393">
        <ele>343.81</ele>
        <time>2020-07-13T08:23:32Z</time>
      </trkpt>
      <trkpt lat="44.80767" lon="4.64362">
        <ele>340.44</ele>
        <time>2020-07-13T08:23:48Z</time>
      </trkpt>
      <trkpt lat="44.80756" lon="4.64336">
        <ele>339</ele>
        <time>2020-07-13T08:24:03Z</time>
      </trkpt>
      <trkpt lat="44.80754" lon="4.64335">
        <ele>339</ele>
        <time>2020-07-13T08:24:04Z</time>
      </trkpt>
      <trkpt lat="44.8075" lon="4.64335">
        <ele>339</ele>
        <time>2020-07-13T08:24:07Z</time>
      </trkpt>
      <trkpt lat="44.80752" lon="4.64353">
        <ele>342.37</ele>
        <time>2020-07-13T08:24:19Z</time>
      </trkpt>
      <trkpt lat="44.80752" lon="4.64368">
        <ele>346.69</ele>
        <time>2020-07-13T08:24:28Z</time>
      </trkpt>
      <trkpt lat="44.80744" lon="4.64397">
        <ele>354.86</ele>
        <time>2020-07-13T08:24:46Z</time>
      </trkpt>
      <trkpt lat="44.80734" lon="4.64426">
        <ele>361.11</ele>
        <time>2020-07-13T08:25:04Z</time>
      </trkpt>
      <trkpt lat="44.8073" lon="4.64434">
        <ele>362.55</ele>
        <time>2020-07-13T08:25:09Z</time>
      </trkpt>
      <trkpt lat="44.80732" lon="4.64444">
        <ele>363.52</ele>
        <time>2020-07-13T08:25:13Z</time>
      </trkpt>
      <trkpt lat="44.80748" lon="4.64473">
        <ele>363.52</ele>
        <time>2020-07-13T08:25:31Z</time>
      </trkpt>
      <trkpt lat="44.80747" lon="4.6448">
        <ele>361.59</ele>
        <time>2020-07-13T08:25:48Z</time>
      </trkpt>
      <trkpt lat="44.80746" lon="4.64479">
        <ele>358.23</ele>
        <time>2020-07-13T08:26:07Z</time>
      </trkpt>
      <trkpt lat="44.80745" lon="4.64484">
        <ele>352.94</ele>
        <time>2020-07-13T08:26:31Z</time>
      </trkpt>
      <trkpt lat="44.80731" lon="4.64475">
        <ele>354.86</ele>
        <time>2020-07-13T08:26:45Z</time>
      </trkpt>
      <trkpt lat="44.80719" lon="4.64479">
        <ele>359.19</ele>
        <time>2020-07-13T08:27:01Z</time>
      </trkpt>
      <trkpt lat="44.80718" lon="4.6448">
        <ele>359.19</ele>
        <time>2020-07-13T08:27:02Z</time>
      </trkpt>
      <trkpt lat="44.80708" lon="4.64482">
        <ele>362.55</ele>
        <time>2020-07-13T08:27:17Z</time>
      </trkpt>
      <trkpt lat="44.80696" lon="4.64476">
        <ele>363.04</ele>
        <time>2020-07-13T08:27:34Z</time>
      </trkpt>
      <trkpt lat="44.80686" lon="4.64475">
        <ele>363.04</ele>
        <time>2020-07-13T08:27:49Z</time>
      </trkpt>
      <trkpt lat="44.80676" lon="4.6447">
        <ele>368.8</ele>
        <time>2020-07-13T08:28:04Z</time>
      </trkpt>
      <trkpt lat="44.80667" lon="4.64464">
        <ele>379.38</ele>
        <time>2020-07-13T08:28:17Z</time>
      </trkpt>
      <trkpt lat="44.80664" lon="4.64467">
        <ele>385.63</ele>
        <time>2020-07-13T08:28:32Z</time>
      </trkpt>
      <trkpt lat="44.80658" lon="4.64478">
        <ele>389.47</ele>
        <time>2020-07-13T08:28:47Z</time>
      </trkpt>
      <trkpt lat="44.80658" lon="4.64497">
        <ele>392.36</ele>
        <time>2020-07-13T08:29:01Z</time>
      </trkpt>
      <trkpt lat="44.80658" lon="4.6451">
        <ele>392.84</ele>
        <time>2020-07-13T08:29:15Z</time>
      </trkpt>
      <trkpt lat="44.80666" lon="4.64527">
        <ele>393.8</ele>
        <time>2020-07-13T08:29:29Z</time>
      </trkpt>
      <trkpt lat="44.80668" lon="4.64538">
        <ele>392.84</ele>
        <time>2020-07-13T08:29:44Z</time>
      </trkpt>
      <trkpt lat="44.80658" lon="4.64535">
        <ele>393.32</ele>
        <time>2020-07-13T08:29:58Z</time>
      </trkpt>
      <trkpt lat="44.80648" lon="4.64531">
        <ele>395.24</ele>
        <time>2020-07-13T08:30:14Z</time>
      </trkpt>
      <trkpt lat="44.8064" lon="4.64532">
        <ele>396.2</ele>
        <time>2020-07-13T08:30:27Z</time>
      </trkpt>
      <trkpt lat="44.8064" lon="4.64531">
        <ele>396.2</ele>
        <time>2020-07-13T08:30:29Z</time>
      </trkpt>
      <trkpt lat="44.80628" lon="4.64504">
        <ele>402.45</ele>
        <time>2020-07-13T08:30:48Z</time>
      </trkpt>
      <trkpt lat="44.80623" lon="4.64476">
        <ele>406.77</ele>
        <time>2020-07-13T08:31:03Z</time>
      </trkpt>
      <trkpt lat="44.80606" lon="4.64448">
        <ele>406.29</ele>
        <time>2020-07-13T08:31:22Z</time>
      </trkpt>
      <trkpt lat="44.80581" lon="4.64427">
        <ele>403.89</ele>
        <time>2020-07-13T08:31:42Z</time>
      </trkpt>
      <trkpt lat="44.80574" lon="4.64428">
        <ele>404.85</ele>
        <time>2020-07-13T08:31:54Z</time>
      </trkpt>
      <trkpt lat="44.80576" lon="4.64432">
        <ele>409.66</ele>
        <time>2020-07-13T08:32:21Z</time>
      </trkpt>
      <trkpt lat="44.80572" lon="4.64428">
        <ele>410.62</ele>
        <time>2020-07-13T08:32:49Z</time>
      </trkpt>
      <trkpt lat="44.80573" lon="4.64431">
        <ele>413.5</ele>
        <time>2020-07-13T08:32:55Z</time>
      </trkpt>
      <trkpt lat="44.8058" lon="4.64455">
        <ele>421.68</ele>
        <time>2020-07-13T08:33:07Z</time>
      </trkpt>
      <trkpt lat="44.80585" lon="4.64463">
        <ele>422.16</ele>
        <time>2020-07-13T08:33:18Z</time>
      </trkpt>
      <trkpt lat="44.80586" lon="4.64465">
        <ele>421.68</ele>
        <time>2020-07-13T08:33:20Z</time>
      </trkpt>
      <trkpt lat="44.80586" lon="4.64497">
        <ele>420.23</ele>
        <time>2020-07-13T08:33:40Z</time>
      </trkpt>
      <trkpt lat="44.80588" lon="4.64518">
        <ele>418.31</ele>
        <time>2020-07-13T08:33:48Z</time>
      </trkpt>
      <trkpt lat="44.80599" lon="4.64542">
        <ele>416.39</ele>
        <time>2020-07-13T08:34:04Z</time>
      </trkpt>
      <trkpt lat="44.80607" lon="4.64572">
        <ele>416.39</ele>
        <time>2020-07-13T08:34:21Z</time>
      </trkpt>
      <trkpt lat="44.80611" lon="4.64586">
        <ele>415.91</ele>
        <time>2020-07-13T08:34:30Z</time>
      </trkpt>
      <trkpt lat="44.80621" lon="4.64604">
        <ele>420.23</ele>
        <time>2020-07-13T08:34:47Z</time>
      </trkpt>
      <trkpt lat="44.80627" lon="4.6461">
        <ele>422.16</ele>
        <time>2020-07-13T08:34:54Z</time>
      </trkpt>
      <trkpt lat="44.80643" lon="4.64627">
        <ele>427.92</ele>
        <time>2020-07-13T08:35:11Z</time>
      </trkpt>
      <trkpt lat="44.80654" lon="4.64644">
        <ele>431.77</ele>
        <time>2020-07-13T08:35:25Z</time>
      </trkpt>
      <trkpt lat="44.80656" lon="4.64649">
        <ele>433.21</ele>
        <time>2020-07-13T08:35:29Z</time>
      </trkpt>
      <trkpt lat="44.80656" lon="4.64656">
        <ele>435.13</ele>
        <time>2020-07-13T08:35:33Z</time>
      </trkpt>
      <trkpt lat="44.80659" lon="4.64682">
        <ele>442.34</ele>
        <time>2020-07-13T08:35:50Z</time>
      </trkpt>
      <trkpt lat="44.80657" lon="4.64714">
        <ele>446.19</ele>
        <time>2020-07-13T08:36:06Z</time>
      </trkpt>
      <trkpt lat="44.80658" lon="4.64737">
        <ele>446.19</ele>
        <time>2020-07-13T08:36:17Z</time>
      </trkpt>
      <trkpt lat="44.80657" lon="4.64776">
        <ele>438.98</ele>
        <time>2020-07-13T08:36:35Z</time>
      </trkpt>
      <trkpt lat="44.80657" lon="4.64783">
        <ele>438.98</ele>
        <time>2020-07-13T08:36:38Z</time>
      </trkpt>
      <trkpt lat="44.80652" lon="4.64792">
        <ele>437.54</ele>
        <time>2020-07-13T08:36:47Z</time>
      </trkpt>
      <trkpt lat="44.80651" lon="4.64805">
        <ele>429.85</ele>
        <time>2020-07-13T08:36:59Z</time>
      </trkpt>
      <trkpt lat="44.80652" lon="4.64809">
        <ele>423.6</ele>
        <time>2020-07-13T08:37:16Z</time>
      </trkpt>
      <trkpt lat="44.80653" lon="4.64805">
        <ele>415.91</ele>
        <time>2020-07-13T08:37:54Z</time>
      </trkpt>
      <trkpt lat="44.8065" lon="4.64805">
        <ele>414.95</ele>
        <time>2020-07-13T08:38:12Z</time>
      </trkpt>
      <trkpt lat="44.80653" lon="4.64807">
        <ele>413.02</ele>
        <time>2020-07-13T08:38:43Z</time>
      </trkpt>
      <trkpt lat="44.80658" lon="4.64807">
        <ele>412.54</ele>
        <time>2020-07-13T08:38:49Z</time>
      </trkpt>
      <trkpt lat="44.8066" lon="4.64803">
        <ele>413.5</ele>
        <time>2020-07-13T08:38:52Z</time>
      </trkpt>
      <trkpt lat="44.80661" lon="4.64795">
        <ele>413.5</ele>
        <time>2020-07-13T08:38:57Z</time>
      </trkpt>
      <trkpt lat="44.80661" lon="4.64786">
        <ele>413.02</ele>
        <time>2020-07-13T08:39:02Z</time>
      </trkpt>
      <trkpt lat="44.80665" lon="4.64765">
        <ele>415.91</ele>
        <time>2020-07-13T08:39:16Z</time>
      </trkpt>
      <trkpt lat="44.80669" lon="4.64739">
        <ele>416.87</ele>
        <time>2020-07-13T08:39:31Z</time>
      </trkpt>
      <trkpt lat="44.8067" lon="4.64709">
        <ele>415.43</ele>
        <time>2020-07-13T08:39:47Z</time>
      </trkpt>
      <trkpt lat="44.80671" lon="4.64681">
        <ele>416.87</ele>
        <time>2020-07-13T08:40:03Z</time>
      </trkpt>
      <trkpt lat="44.80669" lon="4.64669">
        <ele>421.19</ele>
        <time>2020-07-13T08:40:16Z</time>
      </trkpt>
      <trkpt lat="44.80669" lon="4.64674">
        <ele>420.71</ele>
        <time>2020-07-13T08:40:20Z</time>
      </trkpt>
      <trkpt lat="44.80669" lon="4.64699">
        <ele>419.75</ele>
        <time>2020-07-13T08:40:36Z</time>
      </trkpt>
      <trkpt lat="44.80669" lon="4.64724">
        <ele>417.35</ele>
        <time>2020-07-13T08:40:49Z</time>
      </trkpt>
      <trkpt lat="44.80673" lon="4.64751">
        <ele>416.39</ele>
        <time>2020-07-13T08:41:03Z</time>
      </trkpt>
      <trkpt lat="44.80683" lon="4.64771">
        <ele>421.68</ele>
        <time>2020-07-13T08:41:20Z</time>
      </trkpt>
      <trkpt lat="44.8069" lon="4.64784">
        <ele>424.56</ele>
        <time>2020-07-13T08:41:37Z</time>
      </trkpt>
      <trkpt lat="44.80694" lon="4.64794">
        <ele>433.69</ele>
        <time>2020-07-13T08:41:54Z</time>
      </trkpt>
      <trkpt lat="44.80697" lon="4.64807">
        <ele>443.31</ele>
        <time>2020-07-13T08:42:06Z</time>
      </trkpt>
      <trkpt lat="44.80697" lon="4.64821">
        <ele>448.11</ele>
        <time>2020-07-13T08:42:17Z</time>
      </trkpt>
      <trkpt lat="44.80699" lon="4.64831">
        <ele>452.44</ele>
        <time>2020-07-13T08:42:26Z</time>
      </trkpt>
      <trkpt lat="44.807" lon="4.64862">
        <ele>458.69</ele>
        <time>2020-07-13T08:42:42Z</time>
      </trkpt>
      <trkpt lat="44.80696" lon="4.64885">
        <ele>467.34</ele>
        <time>2020-07-13T08:42:56Z</time>
      </trkpt>
      <trkpt lat="44.80694" lon="4.64896">
        <ele>470.7</ele>
        <time>2020-07-13T08:43:02Z</time>
      </trkpt>
      <trkpt lat="44.80688" lon="4.64908">
        <ele>475.99</ele>
        <time>2020-07-13T08:43:13Z</time>
      </trkpt>
      <trkpt lat="44.80681" lon="4.64926">
        <ele>476.95</ele>
        <time>2020-07-13T08:43:27Z</time>
      </trkpt>
      <trkpt lat="44.80672" lon="4.64949">
        <ele>480.8</ele>
        <time>2020-07-13T08:43:41Z</time>
      </trkpt>
      <trkpt lat="44.8067" lon="4.64958">
        <ele>481.76</ele>
        <time>2020-07-13T08:43:48Z</time>
      </trkpt>
      <trkpt lat="44.8067" lon="4.6497">
        <ele>482.72</ele>
        <time>2020-07-13T08:43:56Z</time>
      </trkpt>
      <trkpt lat="44.80679" lon="4.64987">
        <ele>486.56</ele>
        <time>2020-07-13T08:44:10Z</time>
      </trkpt>
      <trkpt lat="44.80681" lon="4.6499">
        <ele>487.53</ele>
        <time>2020-07-13T08:44:12Z</time>
      </trkpt>
      <trkpt lat="44.80696" lon="4.65012">
        <ele>490.41</ele>
        <time>2020-07-13T08:44:26Z</time>
      </trkpt>
      <trkpt lat="44.80702" lon="4.65023">
        <ele>497.62</ele>
        <time>2020-07-13T08:44:39Z</time>
      </trkpt>
      <trkpt lat="44.80711" lon="4.65042">
        <ele>496.18</ele>
        <time>2020-07-13T08:44:50Z</time>
      </trkpt>
      <trkpt lat="44.80718" lon="4.65057">
        <ele>494.26</ele>
        <time>2020-07-13T08:44:59Z</time>
      </trkpt>
      <trkpt lat="44.8073" lon="4.6508">
        <ele>489.93</ele>
        <time>2020-07-13T08:45:11Z</time>
      </trkpt>
      <trkpt lat="44.80743" lon="4.65105">
        <ele>486.08</ele>
        <time>2020-07-13T08:45:25Z</time>
      </trkpt>
      <trkpt lat="44.80746" lon="4.65129">
        <ele>483.68</ele>
        <time>2020-07-13T08:45:37Z</time>
      </trkpt>
      <trkpt lat="44.80747" lon="4.65131">
        <ele>483.2</ele>
        <time>2020-07-13T08:45:38Z</time>
      </trkpt>
      <trkpt lat="44.80748" lon="4.65155">
        <ele>483.2</ele>
        <time>2020-07-13T08:45:53Z</time>
      </trkpt>
      <trkpt lat="44.80744" lon="4.65189">
        <ele>485.12</ele>
        <time>2020-07-13T08:46:10Z</time>
      </trkpt>
      <trkpt lat="44.80737" lon="4.65216">
        <ele>489.93</ele>
        <time>2020-07-13T08:46:26Z</time>
      </trkpt>
      <trkpt lat="44.80732" lon="4.65231">
        <ele>497.14</ele>
        <time>2020-07-13T08:46:37Z</time>
      </trkpt>
      <trkpt lat="44.80733" lon="4.65257">
        <ele>496.66</ele>
        <time>2020-07-13T08:46:53Z</time>
      </trkpt>
      <trkpt lat="44.80746" lon="4.65289">
        <ele>488.49</ele>
        <time>2020-07-13T08:47:08Z</time>
      </trkpt>
      <trkpt lat="44.8076" lon="4.65315">
        <ele>486.56</ele>
        <time>2020-07-13T08:47:23Z</time>
      </trkpt>
      <trkpt lat="44.80765" lon="4.65327">
        <ele>477.91</ele>
        <time>2020-07-13T08:47:38Z</time>
      </trkpt>
      <trkpt lat="44.80774" lon="4.65345">
        <ele>473.11</ele>
        <time>2020-07-13T08:47:55Z</time>
      </trkpt>
      <trkpt lat="44.80781" lon="4.65363">
        <ele>468.3</ele>
        <time>2020-07-13T08:48:12Z</time>
      </trkpt>
      <trkpt lat="44.80784" lon="4.65385">
        <ele>463.49</ele>
        <time>2020-07-13T08:48:30Z</time>
      </trkpt>
      <trkpt lat="44.80783" lon="4.6541">
        <ele>460.61</ele>
        <time>2020-07-13T08:48:48Z</time>
      </trkpt>
      <trkpt lat="44.80785" lon="4.65431">
        <ele>462.05</ele>
        <time>2020-07-13T08:49:04Z</time>
      </trkpt>
      <trkpt lat="44.80788" lon="4.65453">
        <ele>464.93</ele>
        <time>2020-07-13T08:49:23Z</time>
      </trkpt>
      <trkpt lat="44.80793" lon="4.65467">
        <ele>463.01</ele>
        <time>2020-07-13T08:49:36Z</time>
      </trkpt>
      <trkpt lat="44.808" lon="4.65482">
        <ele>458.21</ele>
        <time>2020-07-13T08:49:50Z</time>
      </trkpt>
      <trkpt lat="44.80808" lon="4.65493">
        <ele>453.88</ele>
        <time>2020-07-13T08:50:07Z</time>
      </trkpt>
      <trkpt lat="44.80811" lon="4.65494">
        <ele>453.88</ele>
        <time>2020-07-13T08:50:12Z</time>
      </trkpt>
      <trkpt lat="44.80815" lon="4.65498">
        <ele>456.76</ele>
        <time>2020-07-13T08:50:26Z</time>
      </trkpt>
      <trkpt lat="44.80821" lon="4.65508">
        <ele>461.09</ele>
        <time>2020-07-13T08:50:40Z</time>
      </trkpt>
      <trkpt lat="44.80829" lon="4.65522">
        <ele>463.01</ele>
        <time>2020-07-13T08:50:54Z</time>
      </trkpt>
      <trkpt lat="44.80838" lon="4.65525">
        <ele>462.05</ele>
        <time>2020-07-13T08:51:11Z</time>
      </trkpt>
      <trkpt lat="44.80838" lon="4.65519">
        <ele>461.57</ele>
        <time>2020-07-13T08:51:46Z</time>
      </trkpt>
      <trkpt lat="44.80839" lon="4.6552">
        <ele>459.17</ele>
        <time>2020-07-13T08:52:00Z</time>
      </trkpt>
      <trkpt lat="44.80844" lon="4.65523">
        <ele>459.65</ele>
        <time>2020-07-13T08:52:10Z</time>
      </trkpt>
      <trkpt lat="44.80845" lon="4.65523">
        <ele>456.76</ele>
        <time>2020-07-13T08:52:32Z</time>
      </trkpt>
      <trkpt lat="44.8085" lon="4.65525">
        <ele>459.17</ele>
        <time>2020-07-13T08:52:47Z</time>
      </trkpt>
      <trkpt lat="44.8085" lon="4.65525">
        <ele>459.65</ele>
        <time>2020-07-13T08:53:05Z</time>
      </trkpt>
      <trkpt lat="44.8085" lon="4.65525">
        <ele>460.61</ele>
        <time>2020-07-13T08:53:21Z</time>
      </trkpt>
      <trkpt lat="44.80848" lon="4.65522">
        <ele>461.57</ele>
        <time>2020-07-13T08:53:40Z</time>
      </trkpt>
      <trkpt lat="44.80855" lon="4.65525">
        <ele>460.13</ele>
        <time>2020-07-13T08:53:54Z</time>
      </trkpt>
      <trkpt lat="44.80866" lon="4.65533">
        <ele>462.05</ele>
        <time>2020-07-13T08:54:05Z</time>
      </trkpt>
      <trkpt lat="44.80873" lon="4.65536">
        <ele>463.49</ele>
        <time>2020-07-13T08:54:11Z</time>
      </trkpt>
      <trkpt lat="44.80883" lon="4.65555">
        <ele>467.34</ele>
        <time>2020-07-13T08:54:26Z</time>
      </trkpt>
      <trkpt lat="44.80888" lon="4.65558">
        <ele>468.3</ele>
        <time>2020-07-13T08:54:33Z</time>
      </trkpt>
      <trkpt lat="44.80895" lon="4.65568">
        <ele>467.34</ele>
        <time>2020-07-13T08:54:40Z</time>
      </trkpt>
      <trkpt lat="44.80905" lon="4.65571">
        <ele>466.86</ele>
        <time>2020-07-13T08:54:52Z</time>
      </trkpt>
      <trkpt lat="44.80914" lon="4.65572">
        <ele>464.45</ele>
        <time>2020-07-13T08:55:01Z</time>
      </trkpt>
      <trkpt lat="44.8092" lon="4.65574">
        <ele>463.49</ele>
        <time>2020-07-13T08:55:06Z</time>
      </trkpt>
      <trkpt lat="44.80935" lon="4.65584">
        <ele>464.45</ele>
        <time>2020-07-13T08:55:21Z</time>
      </trkpt>
      <trkpt lat="44.80938" lon="4.65591">
        <ele>468.78</ele>
        <time>2020-07-13T08:55:41Z</time>
      </trkpt>
      <trkpt lat="44.8094" lon="4.65594">
        <ele>467.82</ele>
        <time>2020-07-13T08:55:46Z</time>
      </trkpt>
      <trkpt lat="44.80948" lon="4.65597">
        <ele>463.49</ele>
        <time>2020-07-13T08:56:01Z</time>
      </trkpt>
      <trkpt lat="44.80953" lon="4.65606">
        <ele>463.49</ele>
        <time>2020-07-13T08:56:10Z</time>
      </trkpt>
      <trkpt lat="44.80958" lon="4.6561">
        <ele>463.49</ele>
        <time>2020-07-13T08:56:15Z</time>
      </trkpt>
      <trkpt lat="44.80976" lon="4.65617">
        <ele>461.09</ele>
        <time>2020-07-13T08:56:30Z</time>
      </trkpt>
      <trkpt lat="44.80995" lon="4.65621">
        <ele>461.57</ele>
        <time>2020-07-13T08:56:48Z</time>
      </trkpt>
      <trkpt lat="44.81003" lon="4.65621">
        <ele>462.05</ele>
        <time>2020-07-13T08:56:56Z</time>
      </trkpt>
      <trkpt lat="44.8101" lon="4.65625">
        <ele>463.01</ele>
        <time>2020-07-13T08:57:02Z</time>
      </trkpt>
      <trkpt lat="44.81019" lon="4.65639">
        <ele>466.86</ele>
        <time>2020-07-13T08:57:13Z</time>
      </trkpt>
      <trkpt lat="44.8102" lon="4.65644">
        <ele>468.3</ele>
        <time>2020-07-13T08:57:16Z</time>
      </trkpt>
      <trkpt lat="44.81024" lon="4.6565">
        <ele>469.26</ele>
        <time>2020-07-13T08:57:20Z</time>
      </trkpt>
      <trkpt lat="44.81029" lon="4.65654">
        <ele>469.26</ele>
        <time>2020-07-13T08:57:23Z</time>
      </trkpt>
      <trkpt lat="44.81032" lon="4.65658">
        <ele>468.78</ele>
        <time>2020-07-13T08:57:27Z</time>
      </trkpt>
      <trkpt lat="44.81053" lon="4.6567">
        <ele>464.93</ele>
        <time>2020-07-13T08:57:41Z</time>
      </trkpt>
      <trkpt lat="44.81062" lon="4.65669">
        <ele>461.09</ele>
        <time>2020-07-13T08:57:44Z</time>
      </trkpt>
      <trkpt lat="44.81079" lon="4.6567">
        <ele>455.32</ele>
        <time>2020-07-13T08:57:52Z</time>
      </trkpt>
      <trkpt lat="44.81085" lon="4.65672">
        <ele>452.44</ele>
        <time>2020-07-13T08:57:56Z</time>
      </trkpt>
      <trkpt lat="44.8109" lon="4.65677">
        <ele>451.96</ele>
        <time>2020-07-13T08:58:00Z</time>
      </trkpt>
      <trkpt lat="44.81108" lon="4.65689">
        <ele>451.48</ele>
        <time>2020-07-13T08:58:14Z</time>
      </trkpt>
      <trkpt lat="44.81112" lon="4.65691">
        <ele>451</ele>
        <time>2020-07-13T08:58:17Z</time>
      </trkpt>
      <trkpt lat="44.81115" lon="4.6569">
        <ele>450.03</ele>
        <time>2020-07-13T08:58:19Z</time>
      </trkpt>
      <trkpt lat="44.81118" lon="4.65699">
        <ele>449.07</ele>
        <time>2020-07-13T08:58:26Z</time>
      </trkpt>
      <trkpt lat="44.81132" lon="4.65716">
        <ele>448.59</ele>
        <time>2020-07-13T08:58:41Z</time>
      </trkpt>
      <trkpt lat="44.81141" lon="4.65722">
        <ele>448.11</ele>
        <time>2020-07-13T08:58:47Z</time>
      </trkpt>
      <trkpt lat="44.81151" lon="4.65733">
        <ele>446.19</ele>
        <time>2020-07-13T08:58:56Z</time>
      </trkpt>
      <trkpt lat="44.81167" lon="4.65745">
        <ele>445.23</ele>
        <time>2020-07-13T08:59:10Z</time>
      </trkpt>
      <trkpt lat="44.81173" lon="4.65757">
        <ele>447.15</ele>
        <time>2020-07-13T08:59:19Z</time>
      </trkpt>
      <trkpt lat="44.81187" lon="4.65768">
        <ele>449.55</ele>
        <time>2020-07-13T08:59:33Z</time>
      </trkpt>
      <trkpt lat="44.81197" lon="4.65767">
        <ele>453.88</ele>
        <time>2020-07-13T08:59:46Z</time>
      </trkpt>
      <trkpt lat="44.81202" lon="4.6577">
        <ele>455.32</ele>
        <time>2020-07-13T08:59:58Z</time>
      </trkpt>
      <trkpt lat="44.81203" lon="4.65771">
        <ele>456.76</ele>
        <time>2020-07-13T09:00:08Z</time>
      </trkpt>
      <trkpt lat="44.81217" lon="4.65793">
        <ele>452.92</ele>
        <time>2020-07-13T09:00:25Z</time>
      </trkpt>
      <trkpt lat="44.81219" lon="4.65797">
        <ele>452.44</ele>
        <time>2020-07-13T09:00:29Z</time>
      </trkpt>
      <trkpt lat="44.8123" lon="4.65825">
        <ele>445.71</ele>
        <time>2020-07-13T09:00:45Z</time>
      </trkpt>
      <trkpt lat="44.81236" lon="4.6585">
        <ele>443.31</ele>
        <time>2020-07-13T09:00:59Z</time>
      </trkpt>
      <trkpt lat="44.81236" lon="4.65863">
        <ele>450.52</ele>
        <time>2020-07-13T09:01:13Z</time>
      </trkpt>
      <trkpt lat="44.81236" lon="4.65887">
        <ele>458.21</ele>
        <time>2020-07-13T09:01:26Z</time>
      </trkpt>
      <trkpt lat="44.81236" lon="4.65918">
        <ele>464.93</ele>
        <time>2020-07-13T09:01:39Z</time>
      </trkpt>
      <trkpt lat="44.81237" lon="4.65953">
        <ele>466.86</ele>
        <time>2020-07-13T09:01:56Z</time>
      </trkpt>
      <trkpt lat="44.81235" lon="4.65988">
        <ele>471.18</ele>
        <time>2020-07-13T09:02:12Z</time>
      </trkpt>
      <trkpt lat="44.81229" lon="4.66015">
        <ele>474.55</ele>
        <time>2020-07-13T09:02:26Z</time>
      </trkpt>
      <trkpt lat="44.81221" lon="4.66027">
        <ele>478.87</ele>
        <time>2020-07-13T09:02:36Z</time>
      </trkpt>
      <trkpt lat="44.81212" lon="4.66054">
        <ele>481.76</ele>
        <time>2020-07-13T09:02:50Z</time>
      </trkpt>
      <trkpt lat="44.81211" lon="4.66087">
        <ele>482.72</ele>
        <time>2020-07-13T09:03:02Z</time>
      </trkpt>
      <trkpt lat="44.81214" lon="4.66115">
        <ele>486.08</ele>
        <time>2020-07-13T09:03:15Z</time>
      </trkpt>
      <trkpt lat="44.8122" lon="4.66158">
        <ele>478.39</ele>
        <time>2020-07-13T09:03:29Z</time>
      </trkpt>
      <trkpt lat="44.81231" lon="4.66165">
        <ele>478.39</ele>
        <time>2020-07-13T09:03:39Z</time>
      </trkpt>
      <trkpt lat="44.81265" lon="4.66181">
        <ele>462.53</ele>
        <time>2020-07-13T09:03:55Z</time>
      </trkpt>
      <trkpt lat="44.81306" lon="4.66182">
        <ele>438.98</ele>
        <time>2020-07-13T09:04:11Z</time>
      </trkpt>
      <trkpt lat="44.81315" lon="4.66184">
        <ele>433.69</ele>
        <time>2020-07-13T09:04:16Z</time>
      </trkpt>
      <trkpt lat="44.81329" lon="4.66191">
        <ele>430.81</ele>
        <time>2020-07-13T09:04:26Z</time>
      </trkpt>
      <trkpt lat="44.81331" lon="4.66192">
        <ele>430.81</ele>
        <time>2020-07-13T09:04:27Z</time>
      </trkpt>
      <trkpt lat="44.81332" lon="4.66193">
        <ele>430.33</ele>
        <time>2020-07-13T09:04:28Z</time>
      </trkpt>
      <trkpt lat="44.81362" lon="4.66212">
        <ele>425.04</ele>
        <time>2020-07-13T09:04:47Z</time>
      </trkpt>
      <trkpt lat="44.81386" lon="4.66235">
        <ele>422.16</ele>
        <time>2020-07-13T09:05:06Z</time>
      </trkpt>
      <trkpt lat="44.81387" lon="4.66236">
        <ele>421.68</ele>
        <time>2020-07-13T09:05:07Z</time>
      </trkpt>
      <trkpt lat="44.81389" lon="4.6624">
        <ele>421.68</ele>
        <time>2020-07-13T09:05:10Z</time>
      </trkpt>
      <trkpt lat="44.8139" lon="4.66242">
        <ele>421.68</ele>
        <time>2020-07-13T09:05:11Z</time>
      </trkpt>
      <trkpt lat="44.81391" lon="4.66243">
        <ele>421.68</ele>
        <time>2020-07-13T09:05:12Z</time>
      </trkpt>
      <trkpt lat="44.81401" lon="4.66265">
        <ele>425.04</ele>
        <time>2020-07-13T09:05:27Z</time>
      </trkpt>
      <trkpt lat="44.81401" lon="4.66267">
        <ele>425.04</ele>
        <time>2020-07-13T09:05:29Z</time>
      </trkpt>
      <trkpt lat="44.81401" lon="4.66269">
        <ele>425.04</ele>
        <time>2020-07-13T09:05:30Z</time>
      </trkpt>
      <trkpt lat="44.81401" lon="4.6627">
        <ele>425.04</ele>
        <time>2020-07-13T09:05:31Z</time>
      </trkpt>
      <trkpt lat="44.81401" lon="4.66272">
        <ele>425.04</ele>
        <time>2020-07-13T09:05:32Z</time>
      </trkpt>
      <trkpt lat="44.81401" lon="4.66274">
        <ele>425.04</ele>
        <time>2020-07-13T09:05:33Z</time>
      </trkpt>
      <trkpt lat="44.81405" lon="4.66313">
        <ele>425.04</ele>
        <time>2020-07-13T09:05:51Z</time>
      </trkpt>
      <trkpt lat="44.81414" lon="4.6634">
        <ele>423.6</ele>
        <time>2020-07-13T09:06:04Z</time>
      </trkpt>
      <trkpt lat="44.81426" lon="4.66354">
        <ele>421.68</ele>
        <time>2020-07-13T09:06:15Z</time>
      </trkpt>
      <trkpt lat="44.81454" lon="4.66363">
        <ele>417.83</ele>
        <time>2020-07-13T09:06:34Z</time>
      </trkpt>
      <trkpt lat="44.81479" lon="4.66375">
        <ele>413.5</ele>
        <time>2020-07-13T09:06:51Z</time>
      </trkpt>
      <trkpt lat="44.81504" lon="4.66391">
        <ele>412.54</ele>
        <time>2020-07-13T09:07:09Z</time>
      </trkpt>
      <trkpt lat="44.81526" lon="4.66411">
        <ele>409.18</ele>
        <time>2020-07-13T09:07:26Z</time>
      </trkpt>
      <trkpt lat="44.8155" lon="4.66433">
        <ele>407.26</ele>
        <time>2020-07-13T09:07:44Z</time>
      </trkpt>
      <trkpt lat="44.81565" lon="4.66444">
        <ele>404.37</ele>
        <time>2020-07-13T09:07:58Z</time>
      </trkpt>
      <trkpt lat="44.81566" lon="4.66443">
        <ele>405.33</ele>
        <time>2020-07-13T09:08:15Z</time>
      </trkpt>
      <trkpt lat="44.81567" lon="4.66444">
        <ele>405.33</ele>
        <time>2020-07-13T09:08:26Z</time>
      </trkpt>
      <trkpt lat="44.81587" lon="4.66466">
        <ele>403.89</ele>
        <time>2020-07-13T09:08:43Z</time>
      </trkpt>
      <trkpt lat="44.81606" lon="4.66499">
        <ele>404.37</ele>
        <time>2020-07-13T09:09:03Z</time>
      </trkpt>
      <trkpt lat="44.81622" lon="4.66538">
        <ele>406.29</ele>
        <time>2020-07-13T09:09:24Z</time>
      </trkpt>
      <trkpt lat="44.81629" lon="4.66573">
        <ele>407.74</ele>
        <time>2020-07-13T09:09:41Z</time>
      </trkpt>
      <trkpt lat="44.81629" lon="4.66599">
        <ele>411.1</ele>
        <time>2020-07-13T09:09:55Z</time>
      </trkpt>
      <trkpt lat="44.81631" lon="4.66634">
        <ele>413.02</ele>
        <time>2020-07-13T09:10:13Z</time>
      </trkpt>
      <trkpt lat="44.81641" lon="4.66664">
        <ele>406.29</ele>
        <time>2020-07-13T09:10:29Z</time>
      </trkpt>
      <trkpt lat="44.81648" lon="4.66689">
        <ele>404.85</ele>
        <time>2020-07-13T09:10:44Z</time>
      </trkpt>
      <trkpt lat="44.81651" lon="4.66705">
        <ele>406.29</ele>
        <time>2020-07-13T09:10:51Z</time>
      </trkpt>
      <trkpt lat="44.81657" lon="4.66736">
        <ele>404.85</ele>
        <time>2020-07-13T09:11:06Z</time>
      </trkpt>
      <trkpt lat="44.81664" lon="4.66764">
        <ele>401.49</ele>
        <time>2020-07-13T09:11:21Z</time>
      </trkpt>
      <trkpt lat="44.81672" lon="4.66791">
        <ele>401.01</ele>
        <time>2020-07-13T09:11:35Z</time>
      </trkpt>
      <trkpt lat="44.81679" lon="4.66824">
        <ele>401.97</ele>
        <time>2020-07-13T09:11:52Z</time>
      </trkpt>
      <trkpt lat="44.81683" lon="4.66862">
        <ele>399.57</ele>
        <time>2020-07-13T09:12:10Z</time>
      </trkpt>
      <trkpt lat="44.81686" lon="4.66901">
        <ele>395.24</ele>
        <time>2020-07-13T09:12:27Z</time>
      </trkpt>
      <trkpt lat="44.81685" lon="4.66942">
        <ele>392.36</ele>
        <time>2020-07-13T09:12:45Z</time>
      </trkpt>
      <trkpt lat="44.81694" lon="4.66986">
        <ele>387.55</ele>
        <time>2020-07-13T09:13:05Z</time>
      </trkpt>
      <trkpt lat="44.81699" lon="4.67024">
        <ele>383.22</ele>
        <time>2020-07-13T09:13:23Z</time>
      </trkpt>
      <trkpt lat="44.817" lon="4.67055">
        <ele>382.26</ele>
        <time>2020-07-13T09:13:39Z</time>
      </trkpt>
      <trkpt lat="44.81701" lon="4.67084">
        <ele>384.66</ele>
        <time>2020-07-13T09:13:55Z</time>
      </trkpt>
      <trkpt lat="44.81701" lon="4.67111">
        <ele>388.99</ele>
        <time>2020-07-13T09:14:11Z</time>
      </trkpt>
      <trkpt lat="44.81699" lon="4.67137">
        <ele>394.28</ele>
        <time>2020-07-13T09:14:25Z</time>
      </trkpt>
      <trkpt lat="44.81703" lon="4.67171">
        <ele>399.08</ele>
        <time>2020-07-13T09:14:44Z</time>
      </trkpt>
      <trkpt lat="44.81701" lon="4.67208">
        <ele>396.2</ele>
        <time>2020-07-13T09:15:01Z</time>
      </trkpt>
      <trkpt lat="44.81699" lon="4.67254">
        <ele>386.11</ele>
        <time>2020-07-13T09:15:18Z</time>
      </trkpt>
      <trkpt lat="44.81699" lon="4.67298">
        <ele>382.74</ele>
        <time>2020-07-13T09:15:39Z</time>
      </trkpt>
      <trkpt lat="44.81714" lon="4.67334">
        <ele>384.18</ele>
        <time>2020-07-13T09:16:00Z</time>
      </trkpt>
      <trkpt lat="44.81725" lon="4.67373">
        <ele>379.38</ele>
        <time>2020-07-13T09:16:17Z</time>
      </trkpt>
      <trkpt lat="44.81735" lon="4.67407">
        <ele>373.13</ele>
        <time>2020-07-13T09:16:34Z</time>
      </trkpt>
      <trkpt lat="44.81743" lon="4.67446">
        <ele>370.24</ele>
        <time>2020-07-13T09:16:53Z</time>
      </trkpt>
      <trkpt lat="44.81741" lon="4.67465">
        <ele>372.65</ele>
        <time>2020-07-13T09:17:03Z</time>
      </trkpt>
      <trkpt lat="44.81738" lon="4.67488">
        <ele>377.94</ele>
        <time>2020-07-13T09:17:17Z</time>
      </trkpt>
      <trkpt lat="44.81748" lon="4.67511">
        <ele>379.86</ele>
        <time>2020-07-13T09:17:33Z</time>
      </trkpt>
      <trkpt lat="44.81749" lon="4.67512">
        <ele>380.34</ele>
        <time>2020-07-13T09:17:34Z</time>
      </trkpt>
      <trkpt lat="44.81762" lon="4.67529">
        <ele>382.74</ele>
        <time>2020-07-13T09:17:49Z</time>
      </trkpt>
      <trkpt lat="44.81782" lon="4.67552">
        <ele>382.74</ele>
        <time>2020-07-13T09:18:06Z</time>
      </trkpt>
      <trkpt lat="44.81804" lon="4.67577">
        <ele>380.34</ele>
        <time>2020-07-13T09:18:23Z</time>
      </trkpt>
      <trkpt lat="44.8182" lon="4.67593">
        <ele>379.86</ele>
        <time>2020-07-13T09:18:36Z</time>
      </trkpt>
      <trkpt lat="44.81842" lon="4.67627">
        <ele>370.24</ele>
        <time>2020-07-13T09:18:54Z</time>
      </trkpt>
      <trkpt lat="44.81859" lon="4.67644">
        <ele>367.36</ele>
        <time>2020-07-13T09:19:08Z</time>
      </trkpt>
      <trkpt lat="44.81878" lon="4.67659">
        <ele>365.44</ele>
        <time>2020-07-13T09:19:23Z</time>
      </trkpt>
      <trkpt lat="44.81883" lon="4.67664">
        <ele>366.4</ele>
        <time>2020-07-13T09:19:28Z</time>
      </trkpt>
      <trkpt lat="44.81886" lon="4.67665">
        <ele>366.88</ele>
        <time>2020-07-13T09:19:30Z</time>
      </trkpt>
      <trkpt lat="44.81906" lon="4.67668">
        <ele>369.28</ele>
        <time>2020-07-13T09:19:44Z</time>
      </trkpt>
      <trkpt lat="44.81909" lon="4.67668">
        <ele>369.76</ele>
        <time>2020-07-13T09:19:46Z</time>
      </trkpt>
      <trkpt lat="44.81924" lon="4.6767">
        <ele>369.28</ele>
        <time>2020-07-13T09:19:57Z</time>
      </trkpt>
      <trkpt lat="44.81945" lon="4.67695">
        <ele>371.21</ele>
        <time>2020-07-13T09:20:13Z</time>
      </trkpt>
      <trkpt lat="44.81961" lon="4.67719">
        <ele>374.09</ele>
        <time>2020-07-13T09:20:28Z</time>
      </trkpt>
      <trkpt lat="44.81965" lon="4.67724">
        <ele>376.49</ele>
        <time>2020-07-13T09:20:33Z</time>
      </trkpt>
      <trkpt lat="44.8197" lon="4.67736">
        <ele>378.9</ele>
        <time>2020-07-13T09:20:39Z</time>
      </trkpt>
      <trkpt lat="44.81977" lon="4.67771">
        <ele>368.8</ele>
        <time>2020-07-13T09:20:52Z</time>
      </trkpt>
      <trkpt lat="44.81984" lon="4.67827">
        <ele>356.79</ele>
        <time>2020-07-13T09:21:14Z</time>
      </trkpt>
      <trkpt lat="44.81987" lon="4.67845">
        <ele>351.02</ele>
        <time>2020-07-13T09:21:29Z</time>
      </trkpt>
      <trkpt lat="44.8199" lon="4.67883">
        <ele>353.9</ele>
        <time>2020-07-13T09:21:50Z</time>
      </trkpt>
      <trkpt lat="44.81981" lon="4.67907">
        <ele>355.83</ele>
        <time>2020-07-13T09:22:04Z</time>
      </trkpt>
      <trkpt lat="44.81974" lon="4.67937">
        <ele>364</ele>
        <time>2020-07-13T09:22:23Z</time>
      </trkpt>
      <trkpt lat="44.8197" lon="4.67944">
        <ele>368.32</ele>
        <time>2020-07-13T09:22:29Z</time>
      </trkpt>
      <trkpt lat="44.81961" lon="4.67951">
        <ele>374.09</ele>
        <time>2020-07-13T09:22:38Z</time>
      </trkpt>
      <trkpt lat="44.81949" lon="4.6796">
        <ele>381.78</ele>
        <time>2020-07-13T09:22:48Z</time>
      </trkpt>
      <trkpt lat="44.81936" lon="4.67986">
        <ele>384.66</ele>
        <time>2020-07-13T09:23:01Z</time>
      </trkpt>
      <trkpt lat="44.8193" lon="4.68009">
        <ele>383.22</ele>
        <time>2020-07-13T09:23:17Z</time>
      </trkpt>
      <trkpt lat="44.81933" lon="4.68012">
        <ele>381.3</ele>
        <time>2020-07-13T09:23:20Z</time>
      </trkpt>
      <trkpt lat="44.81946" lon="4.68017">
        <ele>366.4</ele>
        <time>2020-07-13T09:23:37Z</time>
      </trkpt>
      <trkpt lat="44.81966" lon="4.68005">
        <ele>358.71</ele>
        <time>2020-07-13T09:23:53Z</time>
      </trkpt>
      <trkpt lat="44.81978" lon="4.67986">
        <ele>355.83</ele>
        <time>2020-07-13T09:24:11Z</time>
      </trkpt>
      <trkpt lat="44.81988" lon="4.67964">
        <ele>356.31</ele>
        <time>2020-07-13T09:24:27Z</time>
      </trkpt>
      <trkpt lat="44.82003" lon="4.67939">
        <ele>360.15</ele>
        <time>2020-07-13T09:24:44Z</time>
      </trkpt>
      <trkpt lat="44.82009" lon="4.67934">
        <ele>360.63</ele>
        <time>2020-07-13T09:24:48Z</time>
      </trkpt>
      <trkpt lat="44.8203" lon="4.67906">
        <ele>360.63</ele>
        <time>2020-07-13T09:25:05Z</time>
      </trkpt>
      <trkpt lat="44.82045" lon="4.67871">
        <ele>345.25</ele>
        <time>2020-07-13T09:25:19Z</time>
      </trkpt>
      <trkpt lat="44.82057" lon="4.67831">
        <ele>339.48</ele>
        <time>2020-07-13T09:25:39Z</time>
      </trkpt>
      <trkpt lat="44.82056" lon="4.67799">
        <ele>336.12</ele>
        <time>2020-07-13T09:25:54Z</time>
      </trkpt>
      <trkpt lat="44.82049" lon="4.6779">
        <ele>335.16</ele>
        <time>2020-07-13T09:26:03Z</time>
      </trkpt>
      <trkpt lat="44.82049" lon="4.67758">
        <ele>331.31</ele>
        <time>2020-07-13T09:26:21Z</time>
      </trkpt>
      <trkpt lat="44.82054" lon="4.67731">
        <ele>331.79</ele>
        <time>2020-07-13T09:26:35Z</time>
      </trkpt>
      <trkpt lat="44.82054" lon="4.67706">
        <ele>336.12</ele>
        <time>2020-07-13T09:26:49Z</time>
      </trkpt>
      <trkpt lat="44.82052" lon="4.67685">
        <ele>346.21</ele>
        <time>2020-07-13T09:27:04Z</time>
      </trkpt>
      <trkpt lat="44.8205" lon="4.67666">
        <ele>358.23</ele>
        <time>2020-07-13T09:27:19Z</time>
      </trkpt>
      <trkpt lat="44.82041" lon="4.67655">
        <ele>367.84</ele>
        <time>2020-07-13T09:27:35Z</time>
      </trkpt>
      <trkpt lat="44.82032" lon="4.67651">
        <ele>365.92</ele>
        <time>2020-07-13T09:27:41Z</time>
      </trkpt>
      <trkpt lat="44.8201" lon="4.67639">
        <ele>353.42</ele>
        <time>2020-07-13T09:27:56Z</time>
      </trkpt>
      <trkpt lat="44.82027" lon="4.67645">
        <ele>350.06</ele>
        <time>2020-07-13T09:28:12Z</time>
      </trkpt>
      <trkpt lat="44.82045" lon="4.67647">
        <ele>339.96</ele>
        <time>2020-07-13T09:28:27Z</time>
      </trkpt>
      <trkpt lat="44.82058" lon="4.6766">
        <ele>333.71</ele>
        <time>2020-07-13T09:28:40Z</time>
      </trkpt>
      <trkpt lat="44.82071" lon="4.67683">
        <ele>333.71</ele>
        <time>2020-07-13T09:28:56Z</time>
      </trkpt>
      <trkpt lat="44.82074" lon="4.67697">
        <ele>334.2</ele>
        <time>2020-07-13T09:29:03Z</time>
      </trkpt>
      <trkpt lat="44.82077" lon="4.67702">
        <ele>334.2</ele>
        <time>2020-07-13T09:29:06Z</time>
      </trkpt>
      <trkpt lat="44.82097" lon="4.6771">
        <ele>333.71</ele>
        <time>2020-07-13T09:29:21Z</time>
      </trkpt>
      <trkpt lat="44.82105" lon="4.67713">
        <ele>332.75</ele>
        <time>2020-07-13T09:29:30Z</time>
      </trkpt>
      <trkpt lat="44.82119" lon="4.6773">
        <ele>327.95</ele>
        <time>2020-07-13T09:29:44Z</time>
      </trkpt>
      <trkpt lat="44.82136" lon="4.6776">
        <ele>319.78</ele>
        <time>2020-07-13T09:29:59Z</time>
      </trkpt>
      <trkpt lat="44.8216" lon="4.67768">
        <ele>318.33</ele>
        <time>2020-07-13T09:30:13Z</time>
      </trkpt>
      <trkpt lat="44.8217" lon="4.67785">
        <ele>322.66</ele>
        <time>2020-07-13T09:30:25Z</time>
      </trkpt>
      <trkpt lat="44.82172" lon="4.67788">
        <ele>324.58</ele>
        <time>2020-07-13T09:30:29Z</time>
      </trkpt>
      <trkpt lat="44.82184" lon="4.67796">
        <ele>335.64</ele>
        <time>2020-07-13T09:30:44Z</time>
      </trkpt>
      <trkpt lat="44.82188" lon="4.6782">
        <ele>348.62</ele>
        <time>2020-07-13T09:30:58Z</time>
      </trkpt>
      <trkpt lat="44.82187" lon="4.67837">
        <ele>353.9</ele>
        <time>2020-07-13T09:31:06Z</time>
      </trkpt>
      <trkpt lat="44.82179" lon="4.67871">
        <ele>353.9</ele>
        <time>2020-07-13T09:31:22Z</time>
      </trkpt>
      <trkpt lat="44.82169" lon="4.67896">
        <ele>351.5</ele>
        <time>2020-07-13T09:31:36Z</time>
      </trkpt>
      <trkpt lat="44.82149" lon="4.67901">
        <ele>353.9</ele>
        <time>2020-07-13T09:31:50Z</time>
      </trkpt>
      <trkpt lat="44.82121" lon="4.6791">
        <ele>353.42</ele>
        <time>2020-07-13T09:32:04Z</time>
      </trkpt>
      <trkpt lat="44.82103" lon="4.67931">
        <ele>347.65</ele>
        <time>2020-07-13T09:32:18Z</time>
      </trkpt>
      <trkpt lat="44.82102" lon="4.67953">
        <ele>343.33</ele>
        <time>2020-07-13T09:32:27Z</time>
      </trkpt>
      <trkpt lat="44.82098" lon="4.67966">
        <ele>338.52</ele>
        <time>2020-07-13T09:32:40Z</time>
      </trkpt>
      <trkpt lat="44.82093" lon="4.67989">
        <ele>333.23</ele>
        <time>2020-07-13T09:32:55Z</time>
      </trkpt>
      <trkpt lat="44.82092" lon="4.68">
        <ele>328.43</ele>
        <time>2020-07-13T09:33:04Z</time>
      </trkpt>
      <trkpt lat="44.82083" lon="4.68008">
        <ele>315.93</ele>
        <time>2020-07-13T09:33:15Z</time>
      </trkpt>
      <trkpt lat="44.82082" lon="4.68011">
        <ele>314.01</ele>
        <time>2020-07-13T09:33:18Z</time>
      </trkpt>
      <trkpt lat="44.82078" lon="4.68029">
        <ele>307.28</ele>
        <time>2020-07-13T09:33:35Z</time>
      </trkpt>
      <trkpt lat="44.82079" lon="4.68038">
        <ele>303.43</ele>
        <time>2020-07-13T09:34:00Z</time>
      </trkpt>
      <trkpt lat="44.82071" lon="4.68052">
        <ele>307.28</ele>
        <time>2020-07-13T09:34:14Z</time>
      </trkpt>
      <trkpt lat="44.82071" lon="4.68053">
        <ele>307.76</ele>
        <time>2020-07-13T09:34:15Z</time>
      </trkpt>
      <trkpt lat="44.82075" lon="4.68063">
        <ele>309.68</ele>
        <time>2020-07-13T09:34:22Z</time>
      </trkpt>
      <trkpt lat="44.82085" lon="4.68074">
        <ele>307.76</ele>
        <time>2020-07-13T09:34:32Z</time>
      </trkpt>
      <trkpt lat="44.82087" lon="4.68074">
        <ele>307.28</ele>
        <time>2020-07-13T09:34:36Z</time>
      </trkpt>
      <trkpt lat="44.82094" lon="4.68078">
        <ele>305.36</ele>
        <time>2020-07-13T09:34:43Z</time>
      </trkpt>
      <trkpt lat="44.82109" lon="4.68099">
        <ele>301.03</ele>
        <time>2020-07-13T09:34:57Z</time>
      </trkpt>
      <trkpt lat="44.82114" lon="4.68107">
        <ele>298.63</ele>
        <time>2020-07-13T09:35:01Z</time>
      </trkpt>
      <trkpt lat="44.82126" lon="4.68135">
        <ele>291.9</ele>
        <time>2020-07-13T09:35:13Z</time>
      </trkpt>
      <trkpt lat="44.8212" lon="4.68167">
        <ele>291.42</ele>
        <time>2020-07-13T09:35:28Z</time>
      </trkpt>
      <trkpt lat="44.82109" lon="4.68191">
        <ele>294.78</ele>
        <time>2020-07-13T09:35:42Z</time>
      </trkpt>
      <trkpt lat="44.82107" lon="4.68206">
        <ele>294.78</ele>
        <time>2020-07-13T09:35:49Z</time>
      </trkpt>
      <trkpt lat="44.82113" lon="4.68217">
        <ele>293.82</ele>
        <time>2020-07-13T09:35:55Z</time>
      </trkpt>
      <trkpt lat="44.82118" lon="4.68225">
        <ele>293.34</ele>
        <time>2020-07-13T09:35:59Z</time>
      </trkpt>
      <trkpt lat="44.82145" lon="4.68232">
        <ele>285.65</ele>
        <time>2020-07-13T09:36:14Z</time>
      </trkpt>
      <trkpt lat="44.82153" lon="4.68234">
        <ele>285.17</ele>
        <time>2020-07-13T09:36:18Z</time>
      </trkpt>
      <trkpt lat="44.82158" lon="4.68236">
        <ele>284.69</ele>
        <time>2020-07-13T09:36:22Z</time>
      </trkpt>
      <trkpt lat="44.82181" lon="4.68246">
        <ele>277.96</ele>
        <time>2020-07-13T09:36:37Z</time>
      </trkpt>
      <trkpt lat="44.82195" lon="4.68259">
        <ele>271.23</ele>
        <time>2020-07-13T09:36:48Z</time>
      </trkpt>
      <trkpt lat="44.82213" lon="4.68284">
        <ele>263.06</ele>
        <time>2020-07-13T09:37:02Z</time>
      </trkpt>
      <trkpt lat="44.82222" lon="4.68296">
        <ele>260.65</ele>
        <time>2020-07-13T09:37:16Z</time>
      </trkpt>
      <trkpt lat="44.82222" lon="4.68298">
        <ele>260.17</ele>
        <time>2020-07-13T09:37:18Z</time>
      </trkpt>
      <trkpt lat="44.82212" lon="4.68308">
        <ele>267.38</ele>
        <time>2020-07-13T09:37:33Z</time>
      </trkpt>
      <trkpt lat="44.82201" lon="4.68327">
        <ele>266.42</ele>
        <time>2020-07-13T09:37:46Z</time>
      </trkpt>
      <trkpt lat="44.82182" lon="4.68329">
        <ele>264.98</ele>
        <time>2020-07-13T09:38:00Z</time>
      </trkpt>
      <trkpt lat="44.82172" lon="4.68324">
        <ele>260.65</ele>
        <time>2020-07-13T09:38:13Z</time>
      </trkpt>
      <trkpt lat="44.82153" lon="4.68326">
        <ele>257.77</ele>
        <time>2020-07-13T09:38:23Z</time>
      </trkpt>
      <trkpt lat="44.82133" lon="4.68351">
        <ele>256.81</ele>
        <time>2020-07-13T09:38:35Z</time>
      </trkpt>
      <trkpt lat="44.82134" lon="4.68352">
        <ele>256.33</ele>
        <time>2020-07-13T09:38:36Z</time>
      </trkpt>
      <trkpt lat="44.82135" lon="4.68354">
        <ele>255.37</ele>
        <time>2020-07-13T09:38:39Z</time>
      </trkpt>
      <trkpt lat="44.82147" lon="4.68374">
        <ele>253.93</ele>
        <time>2020-07-13T09:38:56Z</time>
      </trkpt>
      <trkpt lat="44.82148" lon="4.68379">
        <ele>254.89</ele>
        <time>2020-07-13T09:38:59Z</time>
      </trkpt>
      <trkpt lat="44.82143" lon="4.68391">
        <ele>256.81</ele>
        <time>2020-07-13T09:39:07Z</time>
      </trkpt>
      <trkpt lat="44.82139" lon="4.68397">
        <ele>260.17</ele>
        <time>2020-07-13T09:39:12Z</time>
      </trkpt>
      <trkpt lat="44.82127" lon="4.6841">
        <ele>273.63</ele>
        <time>2020-07-13T09:39:25Z</time>
      </trkpt>
      <trkpt lat="44.82125" lon="4.68419">
        <ele>274.11</ele>
        <time>2020-07-13T09:39:30Z</time>
      </trkpt>
      <trkpt lat="44.82127" lon="4.68427">
        <ele>274.11</ele>
        <time>2020-07-13T09:39:34Z</time>
      </trkpt>
      <trkpt lat="44.82138" lon="4.68443">
        <ele>273.63</ele>
        <time>2020-07-13T09:39:43Z</time>
      </trkpt>
      <trkpt lat="44.82162" lon="4.6846">
        <ele>267.86</ele>
        <time>2020-07-13T09:39:59Z</time>
      </trkpt>
      <trkpt lat="44.82164" lon="4.68463">
        <ele>265.46</ele>
        <time>2020-07-13T09:40:01Z</time>
      </trkpt>
      <trkpt lat="44.82183" lon="4.68461">
        <ele>262.58</ele>
        <time>2020-07-13T09:40:16Z</time>
      </trkpt>
      <trkpt lat="44.8221" lon="4.6846">
        <ele>262.58</ele>
        <time>2020-07-13T09:40:33Z</time>
      </trkpt>
      <trkpt lat="44.82228" lon="4.68465">
        <ele>256.33</ele>
        <time>2020-07-13T09:40:48Z</time>
      </trkpt>
      <trkpt lat="44.82259" lon="4.68449">
        <ele>243.83</ele>
        <time>2020-07-13T09:41:02Z</time>
      </trkpt>
      <trkpt lat="44.8227" lon="4.68452">
        <ele>242.87</ele>
        <time>2020-07-13T09:41:13Z</time>
      </trkpt>
      <trkpt lat="44.82302" lon="4.68442">
        <ele>233.74</ele>
        <time>2020-07-13T09:41:29Z</time>
      </trkpt>
      <trkpt lat="44.8233" lon="4.68453">
        <ele>224.12</ele>
        <time>2020-07-13T09:41:44Z</time>
      </trkpt>
      <trkpt lat="44.82333" lon="4.68453">
        <ele>223.64</ele>
        <time>2020-07-13T09:41:46Z</time>
      </trkpt>
      <trkpt lat="44.82339" lon="4.68456">
        <ele>222.2</ele>
        <time>2020-07-13T09:41:50Z</time>
      </trkpt>
      <trkpt lat="44.82376" lon="4.68466">
        <ele>213.55</ele>
        <time>2020-07-13T09:42:09Z</time>
      </trkpt>
      <trkpt lat="44.82403" lon="4.68478">
        <ele>211.63</ele>
        <time>2020-07-13T09:42:25Z</time>
      </trkpt>
      <trkpt lat="44.82425" lon="4.685">
        <ele>209.22</ele>
        <time>2020-07-13T09:42:41Z</time>
      </trkpt>
      <trkpt lat="44.82434" lon="4.68509">
        <ele>206.34</ele>
        <time>2020-07-13T09:42:47Z</time>
      </trkpt>
      <trkpt lat="44.82438" lon="4.68509">
        <ele>204.9</ele>
        <time>2020-07-13T09:42:58Z</time>
      </trkpt>
      <trkpt lat="44.82437" lon="4.68506">
        <ele>205.38</ele>
        <time>2020-07-13T09:43:03Z</time>
      </trkpt>
      <trkpt lat="44.82433" lon="4.685">
        <ele>206.34</ele>
        <time>2020-07-13T09:43:07Z</time>
      </trkpt>
      <trkpt lat="44.82413" lon="4.68481">
        <ele>206.82</ele>
        <time>2020-07-13T09:43:23Z</time>
      </trkpt>
      <trkpt lat="44.82396" lon="4.68459">
        <ele>211.63</ele>
        <time>2020-07-13T09:43:39Z</time>
      </trkpt>
      <trkpt lat="44.82376" lon="4.68445">
        <ele>219.32</ele>
        <time>2020-07-13T09:43:54Z</time>
      </trkpt>
      <trkpt lat="44.82358" lon="4.68434">
        <ele>229.41</ele>
        <time>2020-07-13T09:44:08Z</time>
      </trkpt>
      <trkpt lat="44.82345" lon="4.68427">
        <ele>236.62</ele>
        <time>2020-07-13T09:44:17Z</time>
      </trkpt>
      <trkpt lat="44.82339" lon="4.68425">
        <ele>240.47</ele>
        <time>2020-07-13T09:44:21Z</time>
      </trkpt>
      <trkpt lat="44.8232" lon="4.68409">
        <ele>255.37</ele>
        <time>2020-07-13T09:44:35Z</time>
      </trkpt>
      <trkpt lat="44.8232" lon="4.68408">
        <ele>256.81</ele>
        <time>2020-07-13T09:44:36Z</time>
      </trkpt>
      <trkpt lat="44.82314" lon="4.684">
        <ele>269.31</ele>
        <time>2020-07-13T09:44:47Z</time>
      </trkpt>
      <trkpt lat="44.82312" lon="4.68402">
        <ele>273.63</ele>
        <time>2020-07-13T09:44:53Z</time>
      </trkpt>
      <trkpt lat="44.82308" lon="4.68419">
        <ele>272.67</ele>
        <time>2020-07-13T09:45:04Z</time>
      </trkpt>
      <trkpt lat="44.82328" lon="4.68412">
        <ele>271.23</ele>
        <time>2020-07-13T09:45:19Z</time>
      </trkpt>
      <trkpt lat="44.82336" lon="4.68407">
        <ele>271.23</ele>
        <time>2020-07-13T09:45:25Z</time>
      </trkpt>
      <trkpt lat="44.82345" lon="4.684">
        <ele>270.75</ele>
        <time>2020-07-13T09:45:32Z</time>
      </trkpt>
      <trkpt lat="44.82348" lon="4.68398">
        <ele>270.75</ele>
        <time>2020-07-13T09:45:34Z</time>
      </trkpt>
      <trkpt lat="44.82375" lon="4.68393">
        <ele>269.79</ele>
        <time>2020-07-13T09:45:51Z</time>
      </trkpt>
      <trkpt lat="44.824" lon="4.68398">
        <ele>266.42</ele>
        <time>2020-07-13T09:46:05Z</time>
      </trkpt>
      <trkpt lat="44.82415" lon="4.68404">
        <ele>261.62</ele>
        <time>2020-07-13T09:46:13Z</time>
      </trkpt>
      <trkpt lat="44.82446" lon="4.68403">
        <ele>258.73</ele>
        <time>2020-07-13T09:46:32Z</time>
      </trkpt>
      <trkpt lat="44.82455" lon="4.684">
        <ele>256.81</ele>
        <time>2020-07-13T09:46:37Z</time>
      </trkpt>
      <trkpt lat="44.82482" lon="4.68388">
        <ele>251.04</ele>
        <time>2020-07-13T09:46:53Z</time>
      </trkpt>
      <trkpt lat="44.82505" lon="4.68349">
        <ele>217.4</ele>
        <time>2020-07-13T09:47:08Z</time>
      </trkpt>
      <trkpt lat="44.82506" lon="4.68345">
        <ele>215.95</ele>
        <time>2020-07-13T09:47:10Z</time>
      </trkpt>
      <trkpt lat="44.82517" lon="4.6831">
        <ele>206.82</ele>
        <time>2020-07-13T09:47:25Z</time>
      </trkpt>
      <trkpt lat="44.82529" lon="4.68276">
        <ele>204.42</ele>
        <time>2020-07-13T09:47:42Z</time>
      </trkpt>
      <trkpt lat="44.8253" lon="4.68249">
        <ele>203.46</ele>
        <time>2020-07-13T09:47:55Z</time>
      </trkpt>
      <trkpt lat="44.8252" lon="4.68241">
        <ele>201.53</ele>
        <time>2020-07-13T09:48:03Z</time>
      </trkpt>
      <trkpt lat="44.82506" lon="4.68197">
        <ele>194.32</ele>
        <time>2020-07-13T09:48:22Z</time>
      </trkpt>
      <trkpt lat="44.82489" lon="4.68185">
        <ele>199.13</ele>
        <time>2020-07-13T09:48:41Z</time>
      </trkpt>
      <trkpt lat="44.82483" lon="4.68181">
        <ele>203.46</ele>
        <time>2020-07-13T09:48:50Z</time>
      </trkpt>
      <trkpt lat="44.82483" lon="4.68181">
        <ele>204.42</ele>
        <time>2020-07-13T09:48:53Z</time>
      </trkpt>
      <trkpt lat="44.82498" lon="4.6818">
        <ele>214.03</ele>
        <time>2020-07-13T09:49:10Z</time>
      </trkpt>
      <trkpt lat="44.82498" lon="4.6818">
        <ele>214.99</ele>
        <time>2020-07-13T09:49:11Z</time>
      </trkpt>
      <trkpt lat="44.82506" lon="4.68174">
        <ele>214.99</ele>
        <time>2020-07-13T09:49:17Z</time>
      </trkpt>
      <trkpt lat="44.82512" lon="4.68147">
        <ele>213.55</ele>
        <time>2020-07-13T09:49:33Z</time>
      </trkpt>
      <trkpt lat="44.82528" lon="4.6812">
        <ele>202.98</ele>
        <time>2020-07-13T09:49:49Z</time>
      </trkpt>
      <trkpt lat="44.82533" lon="4.68107">
        <ele>197.69</ele>
        <time>2020-07-13T09:49:54Z</time>
      </trkpt>
      <trkpt lat="44.82544" lon="4.68065">
        <ele>190</ele>
        <time>2020-07-13T09:50:11Z</time>
      </trkpt>
      <trkpt lat="44.82561" lon="4.68027">
        <ele>182.79</ele>
        <time>2020-07-13T09:50:30Z</time>
      </trkpt>
      <trkpt lat="44.82585" lon="4.68017">
        <ele>176.54</ele>
        <time>2020-07-13T09:50:46Z</time>
      </trkpt>
      <trkpt lat="44.82613" lon="4.68">
        <ele>162.12</ele>
        <time>2020-07-13T09:51:04Z</time>
      </trkpt>
      <trkpt lat="44.82625" lon="4.67968">
        <ele>159.72</ele>
        <time>2020-07-13T09:51:20Z</time>
      </trkpt>
      <trkpt lat="44.82629" lon="4.67939">
        <ele>158.27</ele>
        <time>2020-07-13T09:51:33Z</time>
      </trkpt>
      <trkpt lat="44.82638" lon="4.67937">
        <ele>158.27</ele>
        <time>2020-07-13T09:51:40Z</time>
      </trkpt>
      <trkpt lat="44.82641" lon="4.67945">
        <ele>158.27</ele>
        <time>2020-07-13T09:51:45Z</time>
      </trkpt>
      <trkpt lat="44.82641" lon="4.67984">
        <ele>159.72</ele>
        <time>2020-07-13T09:52:03Z</time>
      </trkpt>
      <trkpt lat="44.82644" lon="4.68021">
        <ele>161.64</ele>
        <time>2020-07-13T09:52:20Z</time>
      </trkpt>
      <trkpt lat="44.82642" lon="4.68041">
        <ele>164.52</ele>
        <time>2020-07-13T09:52:31Z</time>
      </trkpt>
      <trkpt lat="44.82635" lon="4.68044">
        <ele>164.04</ele>
        <time>2020-07-13T09:52:38Z</time>
      </trkpt>
      <trkpt lat="44.82619" lon="4.68034">
        <ele>163.08</ele>
        <time>2020-07-13T09:52:51Z</time>
      </trkpt>
      <trkpt lat="44.82613" lon="4.68025">
        <ele>162.12</ele>
        <time>2020-07-13T09:53:05Z</time>
      </trkpt>
      <trkpt lat="44.82615" lon="4.68023">
        <ele>162.6</ele>
        <time>2020-07-13T09:53:17Z</time>
      </trkpt>
      <trkpt lat="44.82614" lon="4.68024">
        <ele>164.04</ele>
        <time>2020-07-13T09:53:29Z</time>
      </trkpt>
      <trkpt lat="44.82616" lon="4.68024">
        <ele>160.2</ele>
        <time>2020-07-13T09:53:47Z</time>
      </trkpt>
      <trkpt lat="44.82616" lon="4.68026">
        <ele>162.12</ele>
        <time>2020-07-13T09:54:02Z</time>
      </trkpt>
      <trkpt lat="44.82616" lon="4.68023">
        <ele>161.16</ele>
        <time>2020-07-13T09:54:25Z</time>
      </trkpt>
      <trkpt lat="44.82616" lon="4.68022">
        <ele>159.24</ele>
        <time>2020-07-13T09:54:46Z</time>
      </trkpt>
      <trkpt lat="44.82617" lon="4.68021">
        <ele>158.27</ele>
        <time>2020-07-13T09:55:01Z</time>
      </trkpt>
    </trkseg>
  </trk>
</gpx>